Time,TemperatureF,DewpointF,PressureIn,WindDirection,WindDirectionDegrees,WindSpeedMPH,WindSpeedGustMPH,Humidity,HourlyPrecipIn,Conditions,Clouds,dailyrainin,SoftwareType,DateUTC
2013-01-11 00:00:00,28.9,20.7,29.79,SSE,158,0.0,0.0,71,0.00,,---,0.00,VWS V13.01,2013-01-11 05:00:00,
2013-01-11 00:03:00,28.9,20.7,29.79,North,0,0.9,0.9,71,0.00,,---,0.00,VWS V13.01,2013-01-11 05:03:00,
2013-01-11 00:05:00,28.6,20.7,29.79,NE,45,0.0,0.0,72,0.00,,---,0.00,VWS V13.01,2013-01-11 05:05:00,
2013-01-11 00:08:00,28.6,20.7,29.79,East,90,0.0,0.0,72,0.00,,---,0.00,VWS V13.01,2013-01-11 05:08:00,
2013-01-11 00:10:00,28.8,21.2,29.79,East,90,0.0,0.0,73,0.00,,---,0.00,VWS V13.01,2013-01-11 05:10:00,
2013-01-11 00:13:00,28.8,20.9,29.79,East,90,0.0,0.0,72,0.00,,---,0.00,VWS V13.01,2013-01-11 05:13:00,
2013-01-11 00:15:00,28.8,20.9,29.79,East,90,0.0,0.0,72,0.00,,---,0.00,VWS V13.01,2013-01-11 05:15:00,
2013-01-11 00:16:00,28.8,20.9,29.79,East,90,0.0,0.0,72,0.00,,---,0.00,VWS V13.01,2013-01-11 05:16:00,
2013-01-11 00:18:00,28.8,20.9,29.79,East,90,0.0,0.0,72,0.00,,---,0.00,VWS V13.01,2013-01-11 05:18:00,
2013-01-11 00:20:00,28.8,20.9,29.79,East,90,0.0,0.0,72,0.00,,---,0.00,VWS V13.01,2013-01-11 05:20:00,
2013-01-11 00:21:00,28.8,20.9,29.79,East,90,0.0,0.0,72,0.00,,---,0.00,VWS V13.01,2013-01-11 05:21:00,
2013-01-11 00:23:00,28.8,20.9,29.79,East,90,0.0,0.0,72,0.00,,---,0.00,VWS V13.01,2013-01-11 05:23:00,
2013-01-11 00:26:00,28.8,20.9,29.79,East,90,0.0,0.0,72,0.00,,---,0.00,VWS V13.01,2013-01-11 05:26:00,
2013-01-11 00:28:00,28.8,20.9,29.79,NNE,22,0.0,0.0,72,0.00,,---,0.00,VWS V13.01,2013-01-11 05:28:00,
2013-01-11 00:31:00,28.8,20.9,29.79,NE,45,0.0,0.0,72,0.00,,---,0.00,VWS V13.01,2013-01-11 05:31:00,
2013-01-11 00:33:00,28.8,20.9,29.79,NE,45,0.0,0.0,72,0.00,,---,0.00,VWS V13.01,2013-01-11 05:33:00,
2013-01-11 00:34:00,28.8,20.9,29.79,ENE,68,1.3,1.3,72,0.00,,---,0.00,VWS V13.01,2013-01-11 05:34:00,
2013-01-11 00:36:00,27.9,20.3,29.79,ENE,68,1.6,1.6,73,0.00,,---,0.00,VWS V13.01,2013-01-11 05:36:00,
2013-01-11 00:38:00,27.9,20.3,29.79,ENE,68,0.0,1.6,73,0.00,,---,0.00,VWS V13.01,2013-01-11 05:38:00,
2013-01-11 00:39:00,27.9,20.3,29.79,ENE,68,0.0,0.0,73,0.00,,---,0.00,VWS V13.01,2013-01-11 05:39:00,
2013-01-11 00:41:00,27.9,20.3,29.79,ENE,68,0.0,0.0,73,0.00,,---,0.00,VWS V13.01,2013-01-11 05:41:00,
2013-01-11 00:43:00,28.2,20.7,29.79,ENE,68,0.0,0.0,73,0.00,,---,0.00,VWS V13.01,2013-01-11 05:43:00,
2013-01-11 00:44:00,28.2,20.7,29.79,ENE,68,0.0,0.0,73,0.00,,---,0.00,VWS V13.01,2013-01-11 05:44:00,
2013-01-11 00:46:00,28.2,20.7,29.79,ENE,68,0.0,0.0,73,0.00,,---,0.00,VWS V13.01,2013-01-11 05:46:00,
2013-01-11 00:48:00,28.2,20.7,29.79,SSE,158,0.0,0.0,73,0.00,,---,0.00,VWS V13.01,2013-01-11 05:48:00,
2013-01-11 00:49:00,28.2,20.7,29.79,SSE,158,0.0,0.0,73,0.00,,---,0.00,VWS V13.01,2013-01-11 05:49:00,
2013-01-11 00:51:00,28.2,20.7,29.79,SSE,158,0.0,0.0,73,0.00,,---,0.00,VWS V13.01,2013-01-11 05:51:00,
2013-01-11 00:53:00,28.2,20.7,29.79,SSE,158,0.0,0.0,73,0.00,,---,0.00,VWS V13.01,2013-01-11 05:53:00,
2013-01-11 00:54:00,28.2,20.7,29.79,SSE,158,0.0,0.0,73,0.00,,---,0.00,VWS V13.01,2013-01-11 05:54:00,
2013-01-11 00:56:00,28.2,20.7,29.79,SE,135,0.0,0.0,73,0.00,,---,0.00,VWS V13.01,2013-01-11 05:56:00,
2013-01-11 00:57:00,27.9,20.7,29.79,SE,135,0.0,0.0,74,0.00,,---,0.00,VWS V13.01,2013-01-11 05:57:00,
2013-01-11 00:59:00,28.0,20.8,29.79,SE,135,0.0,0.0,74,0.00,,---,0.00,VWS V13.01,2013-01-11 05:59:00,
2013-01-11 01:01:00,28.0,20.8,29.79,SSE,158,0.0,0.0,74,0.00,,---,0.00,VWS V13.01,2013-01-11 06:01:00,
2013-01-11 01:02:00,28.0,20.8,29.79,SSE,158,0.0,0.0,74,0.00,,---,0.00,VWS V13.01,2013-01-11 06:02:00,
2013-01-11 01:04:00,28.2,21.0,29.79,SSE,158,0.0,0.0,74,0.00,,---,0.00,VWS V13.01,2013-01-11 06:04:00,
2013-01-11 01:07:00,28.2,21.0,29.79,SSE,158,0.0,0.0,74,0.00,,---,0.00,VWS V13.01,2013-01-11 06:07:00,
2013-01-11 01:09:00,28.2,21.0,29.79,NE,45,0.0,0.0,74,0.00,,---,0.00,VWS V13.01,2013-01-11 06:09:00,
2013-01-11 01:12:00,28.2,21.0,29.79,NE,45,0.0,0.0,74,0.00,,---,0.00,VWS V13.01,2013-01-11 06:12:00,
2013-01-11 01:14:00,28.2,21.0,29.79,NE,45,0.0,0.0,74,0.00,,---,0.00,VWS V13.01,2013-01-11 06:14:00,
2013-01-11 01:17:00,28.0,20.8,29.79,West,270,1.1,1.6,74,0.00,,---,0.00,VWS V13.01,2013-01-11 06:17:00,
2013-01-11 01:19:00,28.0,20.8,29.79,West,270,0.0,0.0,74,0.00,,---,0.00,VWS V13.01,2013-01-11 06:19:00,
2013-01-11 01:22:00,28.0,20.8,29.79,West,270,0.0,0.0,74,0.00,,---,0.00,VWS V13.01,2013-01-11 06:22:00,
2013-01-11 01:24:00,28.0,20.8,29.79,ESE,112,0.0,0.0,74,0.00,,---,0.00,VWS V13.01,2013-01-11 06:24:00,
2013-01-11 01:27:00,28.0,20.8,29.79,East,90,2.2,2.2,74,0.00,,---,0.00,VWS V13.01,2013-01-11 06:27:00,
2013-01-11 01:29:00,27.5,20.3,29.79,ENE,68,0.0,0.0,74,0.00,,---,0.00,VWS V13.01,2013-01-11 06:29:00,
2013-01-11 01:32:00,27.5,20.3,29.79,ENE,68,0.0,0.0,74,0.00,,---,0.00,VWS V13.01,2013-01-11 06:32:00,
2013-01-11 01:34:00,27.5,20.3,29.79,ENE,68,0.0,0.0,74,0.00,,---,0.00,VWS V13.01,2013-01-11 06:34:00,
2013-01-11 01:37:00,27.5,20.3,29.79,ENE,68,0.0,0.0,74,0.00,,---,0.00,VWS V13.01,2013-01-11 06:37:00,
2013-01-11 01:39:00,27.5,20.3,29.79,ENE,68,0.0,0.0,74,0.00,,---,0.00,VWS V13.01,2013-01-11 06:39:00,
2013-01-11 01:42:00,27.5,20.3,29.79,ENE,68,0.0,0.0,74,0.00,,---,0.00,VWS V13.01,2013-01-11 06:42:00,
2013-01-11 01:43:00,27.5,20.3,29.79,ENE,68,0.0,0.0,74,0.00,,---,0.00,VWS V13.01,2013-01-11 06:43:00,
2013-01-11 01:44:00,27.5,20.3,29.79,NNE,22,1.1,1.1,74,0.00,,---,0.00,VWS V13.01,2013-01-11 06:44:00,
2013-01-11 01:47:00,27.5,20.3,29.79,SE,135,0.0,0.9,74,0.00,,---,0.00,VWS V13.01,2013-01-11 06:47:00,
2013-01-11 01:48:00,27.5,20.3,29.79,SE,135,0.0,0.0,74,0.00,,---,0.00,VWS V13.01,2013-01-11 06:48:00,
2013-01-11 01:49:00,27.5,20.3,29.79,SE,135,0.0,0.0,74,0.00,,---,0.00,VWS V13.01,2013-01-11 06:49:00,
2013-01-11 01:52:00,27.5,20.3,29.79,SE,135,0.0,0.0,74,0.00,,---,0.00,VWS V13.01,2013-01-11 06:52:00,
2013-01-11 01:53:00,27.5,20.3,29.79,SE,135,0.0,0.0,74,0.00,,---,0.00,VWS V13.01,2013-01-11 06:53:00,
2013-01-11 01:54:00,27.5,20.3,29.79,SE,135,0.0,0.0,74,0.00,,---,0.00,VWS V13.01,2013-01-11 06:54:00,
2013-01-11 01:57:00,27.5,20.3,29.79,SE,135,0.0,0.0,74,0.00,,---,0.00,VWS V13.01,2013-01-11 06:57:00,
2013-01-11 01:58:00,27.5,20.3,29.79,SE,135,0.0,0.0,74,0.00,,---,0.00,VWS V13.01,2013-01-11 06:58:00,
2013-01-11 01:59:00,27.5,20.3,29.79,ESE,112,0.9,1.1,74,0.00,,---,0.00,VWS V13.01,2013-01-11 06:59:00,
2013-01-11 02:03:00,27.5,20.3,29.79,SE,135,0.0,0.0,74,0.00,,---,0.00,VWS V13.01,2013-01-11 07:03:00,
2013-01-11 02:04:00,27.7,20.8,29.79,SE,135,0.0,0.0,75,0.00,,---,0.00,VWS V13.01,2013-01-11 07:04:00,
2013-01-11 02:08:00,27.7,20.8,29.79,SE,135,0.0,0.0,75,0.00,,---,0.00,VWS V13.01,2013-01-11 07:08:00,
2013-01-11 02:09:00,27.7,20.8,29.79,SE,135,0.0,0.0,75,0.00,,---,0.00,VWS V13.01,2013-01-11 07:09:00,
2013-01-11 02:13:00,27.7,20.8,29.79,SE,135,0.0,0.0,75,0.00,,---,0.00,VWS V13.01,2013-01-11 07:13:00,
2013-01-11 02:14:00,27.7,20.8,29.79,SE,135,0.0,0.0,75,0.00,,---,0.00,VWS V13.01,2013-01-11 07:14:00,
2013-01-11 02:15:00,27.7,20.8,29.79,SE,135,0.0,0.0,75,0.00,,---,0.00,VWS V13.01,2013-01-11 07:15:00,
2013-01-11 02:18:00,27.7,20.8,29.79,SE,135,0.0,0.0,75,0.00,,---,0.00,VWS V13.01,2013-01-11 07:18:00,
2013-01-11 02:19:00,27.7,20.8,29.79,SE,135,0.0,0.0,75,0.00,,---,0.00,VWS V13.01,2013-01-11 07:19:00,
2013-01-11 02:20:00,27.7,20.8,29.79,SE,135,0.0,0.0,75,0.00,,---,0.00,VWS V13.01,2013-01-11 07:20:00,
2013-01-11 02:23:00,27.7,20.8,29.79,SE,135,0.0,0.0,75,0.00,,---,0.00,VWS V13.01,2013-01-11 07:23:00,
2013-01-11 02:25:00,27.7,20.8,29.79,SE,135,0.0,0.0,75,0.00,,---,0.00,VWS V13.01,2013-01-11 07:25:00,
2013-01-11 02:28:00,27.7,20.8,29.79,West,270,1.3,1.3,75,0.00,,---,0.00,VWS V13.01,2013-01-11 07:28:00,
2013-01-11 02:30:00,27.5,20.6,29.79,West,270,1.1,1.1,75,0.00,,---,0.00,VWS V13.01,2013-01-11 07:30:00,
2013-01-11 02:33:00,27.5,20.6,29.79,SE,135,0.0,0.0,75,0.00,,---,0.00,VWS V13.01,2013-01-11 07:33:00,
2013-01-11 02:35:00,27.5,20.6,29.79,SE,135,0.0,0.0,75,0.00,,---,0.00,VWS V13.01,2013-01-11 07:35:00,
2013-01-11 02:38:00,27.5,20.6,29.79,East,90,0.0,0.0,75,0.00,,---,0.00,VWS V13.01,2013-01-11 07:38:00,
2013-01-11 02:39:00,27.5,20.6,29.79,East,90,0.0,0.0,75,0.00,,---,0.00,VWS V13.01,2013-01-11 07:39:00,
2013-01-11 02:40:00,27.5,20.6,29.79,East,90,0.0,0.0,75,0.00,,---,0.00,VWS V13.01,2013-01-11 07:40:00,
2013-01-11 02:43:00,27.5,20.6,29.79,WNW,292,1.3,1.3,75,0.00,,---,0.00,VWS V13.01,2013-01-11 07:43:00,
2013-01-11 02:44:00,27.5,20.6,29.79,West,270,0.9,0.9,75,0.00,,---,0.00,VWS V13.01,2013-01-11 07:44:00,
2013-01-11 02:45:00,27.3,20.5,29.79,West,270,0.0,0.9,75,0.00,,---,0.00,VWS V13.01,2013-01-11 07:45:00,
2013-01-11 02:48:00,27.3,20.5,29.79,West,270,0.0,0.0,75,0.00,,---,0.00,VWS V13.01,2013-01-11 07:48:00,
2013-01-11 02:49:00,27.3,20.5,29.79,West,270,0.0,0.0,75,0.00,,---,0.00,VWS V13.01,2013-01-11 07:49:00,
2013-01-11 02:50:00,27.3,20.5,29.79,West,270,0.0,0.0,75,0.00,,---,0.00,VWS V13.01,2013-01-11 07:50:00,
2013-01-11 02:53:00,27.3,20.5,29.79,West,270,0.0,0.0,75,0.00,,---,0.00,VWS V13.01,2013-01-11 07:53:00,
2013-01-11 02:54:00,27.3,20.5,29.79,West,270,0.0,0.0,75,0.00,,---,0.00,VWS V13.01,2013-01-11 07:54:00,
2013-01-11 02:55:00,27.3,20.5,29.79,West,270,0.0,0.0,75,0.00,,---,0.00,VWS V13.01,2013-01-11 07:55:00,
2013-01-11 02:58:00,27.3,20.5,29.79,West,270,0.0,0.0,75,0.00,,---,0.00,VWS V13.01,2013-01-11 07:58:00,
2013-01-11 02:59:00,27.3,20.5,29.79,West,270,0.0,0.0,75,0.00,,---,0.00,VWS V13.01,2013-01-11 07:59:00,
2013-01-11 03:00:00,27.3,20.5,29.79,West,270,0.0,0.0,75,0.00,,---,0.00,VWS V13.01,2013-01-11 08:00:00,
2013-01-11 03:03:00,27.3,20.5,29.79,West,270,0.0,0.0,75,0.00,,---,0.00,VWS V13.01,2013-01-11 08:03:00,
2013-01-11 03:04:00,27.3,20.5,29.79,West,270,0.0,0.0,75,0.00,,---,0.00,VWS V13.01,2013-01-11 08:04:00,
2013-01-11 03:05:00,27.3,20.5,29.79,West,270,0.0,0.0,75,0.00,,---,0.00,VWS V13.01,2013-01-11 08:05:00,
2013-01-11 03:06:00,27.3,20.5,29.79,West,270,0.0,0.0,75,0.00,,---,0.00,VWS V13.01,2013-01-11 08:06:00,
2013-01-11 03:08:00,26.8,19.9,29.79,West,270,0.0,0.0,75,0.00,,---,0.00,VWS V13.01,2013-01-11 08:08:00,
2013-01-11 03:09:00,26.8,19.9,29.79,West,270,0.0,0.0,75,0.00,,---,0.00,VWS V13.01,2013-01-11 08:09:00,
2013-01-11 03:10:00,26.8,19.9,29.79,West,270,0.0,0.0,75,0.00,,---,0.00,VWS V13.01,2013-01-11 08:10:00,
2013-01-11 03:11:00,26.8,19.9,29.79,West,270,0.0,0.0,75,0.00,,---,0.00,VWS V13.01,2013-01-11 08:11:00,
2013-01-11 03:13:00,26.8,19.9,29.79,West,270,0.0,0.0,75,0.00,,---,0.00,VWS V13.01,2013-01-11 08:13:00,
2013-01-11 03:14:00,26.8,19.9,29.79,West,270,0.0,0.0,75,0.00,,---,0.00,VWS V13.01,2013-01-11 08:14:00,
2013-01-11 03:15:00,26.6,20.1,29.79,West,270,0.0,0.0,76,0.00,,---,0.00,VWS V13.01,2013-01-11 08:15:00,
2013-01-11 03:16:00,26.6,20.1,29.79,West,270,0.0,0.0,76,0.00,,---,0.00,VWS V13.01,2013-01-11 08:16:00,
2013-01-11 03:19:00,26.6,20.1,29.79,West,270,2.0,2.0,76,0.00,,---,0.00,VWS V13.01,2013-01-11 08:19:00,
2013-01-11 03:20:00,26.6,20.1,29.79,West,270,0.0,1.1,76,0.00,,---,0.00,VWS V13.01,2013-01-11 08:20:00,
2013-01-11 03:21:00,26.6,20.1,29.79,West,270,0.0,1.1,76,0.00,,---,0.00,VWS V13.01,2013-01-11 08:21:00,
2013-01-11 03:24:00,26.6,20.1,29.79,East,90,0.0,0.0,76,0.00,,---,0.00,VWS V13.01,2013-01-11 08:24:00,
2013-01-11 03:25:00,26.6,20.1,29.79,East,90,0.0,0.0,76,0.00,,---,0.00,VWS V13.01,2013-01-11 08:25:00,
2013-01-11 03:26:00,26.6,20.1,29.79,East,90,0.0,0.0,76,0.00,,---,0.00,VWS V13.01,2013-01-11 08:26:00,
2013-01-11 03:29:00,26.6,20.1,29.79,SE,135,0.0,0.0,76,0.00,,---,0.00,VWS V13.01,2013-01-11 08:29:00,
2013-01-11 03:30:00,26.6,20.1,29.79,ENE,68,0.0,0.0,76,0.00,,---,0.00,VWS V13.01,2013-01-11 08:30:00,
2013-01-11 03:31:00,26.6,20.1,29.79,ENE,68,0.0,0.0,76,0.00,,---,0.00,VWS V13.01,2013-01-11 08:31:00,
2013-01-11 03:34:00,26.6,20.1,29.79,East,90,0.0,0.0,76,0.00,,---,0.00,VWS V13.01,2013-01-11 08:34:00,
2013-01-11 03:35:00,26.6,20.1,29.79,East,90,0.0,0.0,76,0.00,,---,0.00,VWS V13.01,2013-01-11 08:35:00,
2013-01-11 03:36:00,26.2,19.7,29.79,East,90,0.0,0.0,76,0.00,,---,0.00,VWS V13.01,2013-01-11 08:36:00,
2013-01-11 03:39:00,26.2,19.7,29.79,East,90,0.0,0.0,76,0.00,,---,0.00,VWS V13.01,2013-01-11 08:39:00,
2013-01-11 03:40:00,26.2,19.7,29.79,East,90,0.0,0.0,76,0.00,,---,0.00,VWS V13.01,2013-01-11 08:40:00,
2013-01-11 03:41:00,26.2,19.7,29.79,East,90,0.0,0.0,76,0.00,,---,0.00,VWS V13.01,2013-01-11 08:41:00,
2013-01-11 03:44:00,26.2,19.7,29.79,West,270,0.0,0.0,76,0.00,,---,0.00,VWS V13.01,2013-01-11 08:44:00,
2013-01-11 03:45:00,26.2,19.7,29.79,West,270,0.0,0.0,76,0.00,,---,0.00,VWS V13.01,2013-01-11 08:45:00,
2013-01-11 03:46:00,26.2,19.7,29.79,West,270,0.0,0.0,76,0.00,,---,0.00,VWS V13.01,2013-01-11 08:46:00,
2013-01-11 03:49:00,26.2,19.7,29.79,East,90,0.0,0.0,76,0.00,,---,0.00,VWS V13.01,2013-01-11 08:49:00,
2013-01-11 03:50:00,26.2,19.7,29.79,East,90,0.0,0.0,76,0.00,,---,0.00,VWS V13.01,2013-01-11 08:50:00,
2013-01-11 03:51:00,26.2,19.7,29.76,WSW,248,1.3,1.3,76,0.00,,---,0.00,VWS V13.01,2013-01-11 08:51:00,
2013-01-11 03:54:00,26.2,19.7,29.76,WSW,248,0.0,0.0,76,0.00,,---,0.00,VWS V13.01,2013-01-11 08:54:00,
2013-01-11 03:55:00,26.2,19.7,29.76,WSW,248,0.0,0.0,76,0.00,,---,0.00,VWS V13.01,2013-01-11 08:55:00,
2013-01-11 03:56:00,26.2,19.7,29.76,WSW,248,0.0,0.0,76,0.00,,---,0.00,VWS V13.01,2013-01-11 08:56:00,
2013-01-11 03:59:00,26.1,19.5,29.76,SE,135,0.0,0.0,76,0.00,,---,0.00,VWS V13.01,2013-01-11 08:59:00,
2013-01-11 04:00:00,26.1,19.5,29.76,SE,135,0.0,0.0,76,0.00,,---,0.00,VWS V13.01,2013-01-11 09:00:00,
2013-01-11 04:01:00,26.1,19.5,29.76,SE,135,0.0,0.0,76,0.00,,---,0.00,VWS V13.01,2013-01-11 09:01:00,
2013-01-11 04:04:00,26.1,19.5,29.76,SSW,202,0.0,0.0,76,0.00,,---,0.00,VWS V13.01,2013-01-11 09:04:00,
2013-01-11 04:05:00,26.1,19.5,29.76,SSW,202,0.0,0.0,76,0.00,,---,0.00,VWS V13.01,2013-01-11 09:05:00,
2013-01-11 04:06:00,26.1,19.5,29.76,SSW,202,0.0,0.0,76,0.00,,---,0.00,VWS V13.01,2013-01-11 09:06:00,
2013-01-11 04:09:00,26.2,20.0,29.76,SE,135,0.0,0.0,77,0.00,,---,0.00,VWS V13.01,2013-01-11 09:09:00,
2013-01-11 04:10:00,26.2,20.0,29.76,SE,135,0.0,0.0,77,0.00,,---,0.00,VWS V13.01,2013-01-11 09:10:00,
2013-01-11 04:11:00,26.2,20.0,29.76,SE,135,0.0,0.0,77,0.00,,---,0.00,VWS V13.01,2013-01-11 09:11:00,
2013-01-11 04:14:00,26.2,20.0,29.76,SE,135,0.0,0.0,77,0.00,,---,0.00,VWS V13.01,2013-01-11 09:14:00,
2013-01-11 04:16:00,26.2,20.0,29.76,SE,135,0.0,0.0,77,0.00,,---,0.00,VWS V13.01,2013-01-11 09:16:00,
2013-01-11 04:19:00,26.2,20.0,29.76,SSW,202,0.0,0.0,77,0.00,,---,0.00,VWS V13.01,2013-01-11 09:19:00,
2013-01-11 04:21:00,26.2,20.0,29.76,SSW,202,1.1,1.1,77,0.00,,---,0.00,VWS V13.01,2013-01-11 09:21:00,
2013-01-11 04:22:00,26.2,20.0,29.76,SSW,202,0.0,1.1,77,0.00,,---,0.00,VWS V13.01,2013-01-11 09:22:00,
2013-01-11 04:25:00,26.2,20.0,29.76,SW,225,0.0,0.0,77,0.00,,---,0.00,VWS V13.01,2013-01-11 09:25:00,
2013-01-11 04:26:00,26.2,20.0,29.76,SW,225,0.0,0.0,77,0.00,,---,0.00,VWS V13.01,2013-01-11 09:26:00,
2013-01-11 04:27:00,26.2,20.0,29.76,SW,225,0.0,0.0,77,0.00,,---,0.00,VWS V13.01,2013-01-11 09:27:00,
2013-01-11 04:30:00,26.6,20.4,29.76,SSE,158,0.0,0.0,77,0.00,,---,0.00,VWS V13.01,2013-01-11 09:30:00,
2013-01-11 04:31:00,26.6,20.4,29.76,SSE,158,0.0,0.0,77,0.00,,---,0.00,VWS V13.01,2013-01-11 09:31:00,
2013-01-11 04:32:00,26.6,20.4,29.76,SSE,158,0.0,0.0,77,0.00,,---,0.00,VWS V13.01,2013-01-11 09:32:00,
2013-01-11 04:35:00,26.6,20.4,29.76,SSE,158,0.0,0.0,77,0.00,,---,0.00,VWS V13.01,2013-01-11 09:35:00,
2013-01-11 04:36:00,26.6,20.4,29.76,SSE,158,0.0,0.0,77,0.00,,---,0.00,VWS V13.01,2013-01-11 09:36:00,
2013-01-11 04:37:00,26.6,20.4,29.76,SSE,158,0.0,0.0,77,0.00,,---,0.00,VWS V13.01,2013-01-11 09:37:00,
2013-01-11 04:40:00,26.6,20.4,29.76,SSE,158,0.0,0.0,77,0.00,,---,0.00,VWS V13.01,2013-01-11 09:40:00,
2013-01-11 04:41:00,26.6,20.4,29.76,SSE,158,0.0,0.0,77,0.00,,---,0.00,VWS V13.01,2013-01-11 09:41:00,
2013-01-11 04:42:00,26.6,20.4,29.76,SSE,158,0.0,0.0,77,0.00,,---,0.00,VWS V13.01,2013-01-11 09:42:00,
2013-01-11 04:45:00,26.6,20.4,29.74,SSE,158,0.0,0.0,77,0.00,,---,0.00,VWS V13.01,2013-01-11 09:45:00,
2013-01-11 04:47:00,26.6,20.4,29.74,SE,135,0.0,0.0,77,0.00,,---,0.00,VWS V13.01,2013-01-11 09:47:00,
2013-01-11 04:50:00,26.6,20.4,29.74,SE,135,0.0,0.0,77,0.00,,---,0.00,VWS V13.01,2013-01-11 09:50:00,
2013-01-11 04:52:00,26.6,20.4,29.74,South,180,0.0,0.0,77,0.00,,---,0.00,VWS V13.01,2013-01-11 09:52:00,
2013-01-11 04:55:00,26.6,20.4,29.74,South,180,0.0,0.0,77,0.00,,---,0.00,VWS V13.01,2013-01-11 09:55:00,
2013-01-11 04:57:00,26.6,20.4,29.74,South,180,0.0,0.0,77,0.00,,---,0.00,VWS V13.01,2013-01-11 09:57:00,
2013-01-11 05:01:00,26.8,20.5,29.74,ESE,112,1.1,1.1,77,0.00,,---,0.00,VWS V13.01,2013-01-11 10:01:00,
2013-01-11 05:02:00,26.8,20.5,29.74,ESE,112,0.0,0.0,77,0.00,,---,0.00,VWS V13.01,2013-01-11 10:02:00,
2013-01-11 05:06:00,26.8,20.5,29.74,ESE,112,0.0,0.0,77,0.00,,---,0.00,VWS V13.01,2013-01-11 10:06:00,
2013-01-11 05:07:00,26.8,20.5,29.74,ESE,112,0.0,0.0,77,0.00,,---,0.00,VWS V13.01,2013-01-11 10:07:00,
2013-01-11 05:08:00,26.8,20.5,29.74,ESE,112,0.0,0.0,77,0.00,,---,0.00,VWS V13.01,2013-01-11 10:08:00,
2013-01-11 05:11:00,26.8,20.5,29.74,SSE,158,0.0,0.0,77,0.00,,---,0.00,VWS V13.01,2013-01-11 10:11:00,
2013-01-11 05:12:00,26.8,20.5,29.74,SSE,158,0.0,0.0,77,0.00,,---,0.00,VWS V13.01,2013-01-11 10:12:00,
2013-01-11 05:13:00,26.8,20.5,29.74,SSE,158,0.0,0.0,77,0.00,,---,0.00,VWS V13.01,2013-01-11 10:13:00,
2013-01-11 05:16:00,27.0,20.7,29.74,SSE,158,0.0,0.0,77,0.00,,---,0.00,VWS V13.01,2013-01-11 10:16:00,
2013-01-11 05:17:00,27.0,20.7,29.74,SSE,158,0.0,0.0,77,0.00,,---,0.00,VWS V13.01,2013-01-11 10:17:00,
2013-01-11 05:18:00,27.0,20.7,29.74,SSE,158,0.0,0.0,77,0.00,,---,0.00,VWS V13.01,2013-01-11 10:18:00,
2013-01-11 05:21:00,27.0,20.7,29.74,SSE,158,0.0,0.0,77,0.00,,---,0.00,VWS V13.01,2013-01-11 10:21:00,
2013-01-11 05:22:00,27.0,20.7,29.74,SSE,158,0.0,0.0,77,0.00,,---,0.00,VWS V13.01,2013-01-11 10:22:00,
2013-01-11 05:23:00,27.0,20.7,29.74,SSE,158,0.0,0.0,77,0.00,,---,0.00,VWS V13.01,2013-01-11 10:23:00,
2013-01-11 05:26:00,27.0,20.7,29.74,SSE,158,0.0,0.0,77,0.00,,---,0.00,VWS V13.01,2013-01-11 10:26:00,
2013-01-11 05:28:00,27.0,20.7,29.74,SSE,158,0.0,0.0,77,0.00,,---,0.00,VWS V13.01,2013-01-11 10:28:00,
2013-01-11 05:31:00,27.0,20.7,29.74,SSE,158,0.0,0.9,77,0.00,,---,0.00,VWS V13.01,2013-01-11 10:31:00,
2013-01-11 05:33:00,27.0,20.7,29.74,South,180,0.0,0.0,77,0.00,,---,0.00,VWS V13.01,2013-01-11 10:33:00,
2013-01-11 05:37:00,27.0,20.7,29.74,South,180,0.0,0.0,77,0.00,,---,0.00,VWS V13.01,2013-01-11 10:37:00,
2013-01-11 05:38:00,27.0,20.7,29.74,SE,135,0.0,0.0,77,0.00,,---,0.00,VWS V13.01,2013-01-11 10:38:00,
2013-01-11 05:42:00,27.0,20.7,29.74,SE,135,0.0,0.0,77,0.00,,---,0.00,VWS V13.01,2013-01-11 10:42:00,
2013-01-11 05:43:00,27.0,20.7,29.74,SE,135,0.0,0.0,77,0.00,,---,0.00,VWS V13.01,2013-01-11 10:43:00,
2013-01-11 05:47:00,27.0,21.0,29.74,SE,135,0.0,0.0,78,0.00,,---,0.00,VWS V13.01,2013-01-11 10:47:00,
2013-01-11 05:48:00,27.0,21.0,29.74,SE,135,0.0,0.0,78,0.00,,---,0.00,VWS V13.01,2013-01-11 10:48:00,
2013-01-11 05:49:00,27.0,21.0,29.74,SE,135,0.0,0.0,78,0.00,,---,0.00,VWS V13.01,2013-01-11 10:49:00,
2013-01-11 05:53:00,27.0,21.0,29.74,SSE,158,0.0,0.0,78,0.00,,---,0.00,VWS V13.01,2013-01-11 10:53:00,
2013-01-11 05:54:00,27.0,21.0,29.74,SSE,158,0.0,0.0,78,0.00,,---,0.00,VWS V13.01,2013-01-11 10:54:00,
2013-01-11 05:58:00,27.0,21.0,29.74,SSE,158,0.0,0.0,78,0.00,,---,0.00,VWS V13.01,2013-01-11 10:58:00,
2013-01-11 05:59:00,27.0,21.0,29.74,ENE,68,0.0,0.0,78,0.00,,---,0.00,VWS V13.01,2013-01-11 10:59:00,
2013-01-11 06:03:00,27.0,21.0,29.74,ENE,68,0.0,0.0,78,0.00,,---,0.00,VWS V13.01,2013-01-11 11:03:00,
2013-01-11 06:04:00,27.0,21.0,29.74,ENE,68,0.0,0.0,78,0.00,,---,0.00,VWS V13.01,2013-01-11 11:04:00,
2013-01-11 06:08:00,27.0,21.0,29.74,West,270,0.0,1.3,78,0.00,,---,0.00,VWS V13.01,2013-01-11 11:08:00,
2013-01-11 06:09:00,27.0,21.0,29.74,West,270,0.0,0.0,78,0.00,,---,0.00,VWS V13.01,2013-01-11 11:09:00,
2013-01-11 06:13:00,27.0,21.0,29.74,South,180,0.0,0.0,78,0.00,,---,0.00,VWS V13.01,2013-01-11 11:13:00,
2013-01-11 06:14:00,27.0,21.0,29.74,SSE,158,0.0,0.0,78,0.00,,---,0.00,VWS V13.01,2013-01-11 11:14:00,
2013-01-11 06:15:00,27.3,21.4,29.74,SSE,158,0.0,0.0,78,0.00,,---,0.00,VWS V13.01,2013-01-11 11:15:00,
2013-01-11 06:18:00,27.3,21.4,29.74,SSE,158,0.0,0.0,78,0.00,,---,0.00,VWS V13.01,2013-01-11 11:18:00,
2013-01-11 06:19:00,27.3,21.4,29.74,SSE,158,0.0,0.0,78,0.00,,---,0.00,VWS V13.01,2013-01-11 11:19:00,
2013-01-11 06:20:00,27.3,21.4,29.74,ENE,68,1.1,1.1,78,0.00,,---,0.00,VWS V13.01,2013-01-11 11:20:00,
2013-01-11 06:23:00,27.3,21.4,29.74,ENE,68,0.0,0.0,78,0.00,,---,0.00,VWS V13.01,2013-01-11 11:23:00,
2013-01-11 06:24:00,27.3,21.4,29.74,ENE,68,0.0,0.0,78,0.00,,---,0.00,VWS V13.01,2013-01-11 11:24:00,
2013-01-11 06:25:00,27.3,21.4,29.74,ENE,68,0.0,0.0,78,0.00,,---,0.00,VWS V13.01,2013-01-11 11:25:00,
2013-01-11 06:28:00,27.3,21.4,29.74,ENE,68,0.0,0.0,78,0.00,,---,0.00,VWS V13.01,2013-01-11 11:28:00,
2013-01-11 06:29:00,27.3,21.4,29.74,ENE,68,0.0,0.0,78,0.00,,---,0.00,VWS V13.01,2013-01-11 11:29:00,
2013-01-11 06:30:00,27.3,21.4,29.74,ENE,68,0.0,0.0,78,0.00,,---,0.00,VWS V13.01,2013-01-11 11:30:00,
2013-01-11 06:34:00,27.3,21.4,29.74,ENE,68,0.0,0.0,78,0.00,,---,0.00,VWS V13.01,2013-01-11 11:34:00,
2013-01-11 06:35:00,27.3,21.4,29.74,NW,315,0.9,0.9,78,0.00,,---,0.00,VWS V13.01,2013-01-11 11:35:00,
2013-01-11 06:39:00,27.9,21.9,29.74,WNW,292,0.0,0.0,78,0.00,,---,0.00,VWS V13.01,2013-01-11 11:39:00,
2013-01-11 06:40:00,27.9,21.9,29.74,WNW,292,0.0,0.0,78,0.00,,---,0.00,VWS V13.01,2013-01-11 11:40:00,
2013-01-11 06:44:00,27.9,21.9,29.74,East,90,1.1,1.1,78,0.00,,---,0.00,VWS V13.01,2013-01-11 11:44:00,
2013-01-11 06:45:00,27.9,21.9,29.74,East,90,1.1,1.1,78,0.00,,---,0.00,VWS V13.01,2013-01-11 11:45:00,
2013-01-11 06:49:00,27.9,21.9,29.76,WSW,248,2.0,2.0,78,0.00,,---,0.00,VWS V13.01,2013-01-11 11:49:00,
2013-01-11 06:50:00,27.9,21.9,29.76,WSW,248,2.0,2.0,78,0.00,,---,0.00,VWS V13.01,2013-01-11 11:50:00,
2013-01-11 06:54:00,27.9,21.9,29.76,South,180,0.0,0.0,78,0.00,,---,0.00,VWS V13.01,2013-01-11 11:54:00,
2013-01-11 06:55:00,27.9,21.9,29.76,SSE,158,0.0,0.0,78,0.00,,---,0.00,VWS V13.01,2013-01-11 11:55:00,
2013-01-11 06:59:00,27.9,21.9,29.76,South,180,0.0,0.0,78,0.00,,---,0.00,VWS V13.01,2013-01-11 11:59:00,
2013-01-11 07:00:00,27.9,21.9,29.76,South,180,0.0,0.0,78,0.00,,---,0.00,VWS V13.01,2013-01-11 12:00:00,
2013-01-11 07:01:00,27.9,21.9,29.76,South,180,0.0,0.0,78,0.00,,---,0.00,VWS V13.01,2013-01-11 12:01:00,
2013-01-11 07:05:00,27.9,21.9,29.74,South,180,0.0,0.0,78,0.00,,---,0.00,VWS V13.01,2013-01-11 12:05:00,
2013-01-11 07:06:00,27.9,21.9,29.74,South,180,0.0,0.0,78,0.00,,---,0.00,VWS V13.01,2013-01-11 12:06:00,
2013-01-11 07:10:00,28.8,22.8,29.74,South,180,0.0,0.0,78,0.00,,---,0.00,VWS V13.01,2013-01-11 12:10:00,
2013-01-11 07:11:00,28.8,22.8,29.74,South,180,0.0,0.0,78,0.00,,---,0.00,VWS V13.01,2013-01-11 12:11:00,
2013-01-11 07:15:00,28.8,22.8,29.74,South,180,0.0,0.0,78,0.00,,---,0.00,VWS V13.01,2013-01-11 12:15:00,
2013-01-11 07:16:00,28.8,22.8,29.74,South,180,0.0,0.0,78,0.00,,---,0.00,VWS V13.01,2013-01-11 12:16:00,
2013-01-11 07:20:00,28.8,22.8,29.76,SSE,158,0.0,0.0,78,0.00,,---,0.00,VWS V13.01,2013-01-11 12:20:00,
2013-01-11 07:21:00,28.8,22.8,29.76,SSE,158,0.0,0.0,78,0.00,,---,0.00,VWS V13.01,2013-01-11 12:21:00,
2013-01-11 07:25:00,29.1,23.1,29.76,SSE,158,0.0,0.0,78,0.00,,---,0.00,VWS V13.01,2013-01-11 12:25:00,
2013-01-11 07:26:00,29.3,23.3,29.76,SSE,158,0.0,0.0,78,0.00,,---,0.00,VWS V13.01,2013-01-11 12:26:00,
2013-01-11 07:30:00,29.5,23.5,29.76,SSE,158,0.0,0.0,78,0.00,,---,0.00,VWS V13.01,2013-01-11 12:30:00,
2013-01-11 07:31:00,29.5,23.5,29.76,SSE,158,0.0,0.0,78,0.00,,---,0.00,VWS V13.01,2013-01-11 12:31:00,
2013-01-11 07:32:00,29.5,23.5,29.76,SSE,158,0.0,0.0,78,0.00,,---,0.00,VWS V13.01,2013-01-11 12:32:00,
2013-01-11 07:36:00,29.5,23.5,29.74,SSE,158,0.0,0.0,78,0.00,,---,0.00,VWS V13.01,2013-01-11 12:36:00,
2013-01-11 07:37:00,29.5,23.5,29.74,SSE,158,0.0,0.0,78,0.00,,---,0.00,VWS V13.01,2013-01-11 12:37:00,
2013-01-11 07:41:00,29.7,23.6,29.74,SSE,158,0.0,0.0,78,0.00,,---,0.00,VWS V13.01,2013-01-11 12:41:00,
2013-01-11 07:42:00,29.7,23.6,29.74,SSE,158,0.0,0.0,78,0.00,,---,0.00,VWS V13.01,2013-01-11 12:42:00,
2013-01-11 07:46:00,29.8,23.8,29.74,SSE,158,0.0,0.0,78,0.00,,---,0.00,VWS V13.01,2013-01-11 12:46:00,
2013-01-11 07:47:00,29.8,23.8,29.74,SSE,158,0.0,0.0,78,0.00,,---,0.00,VWS V13.01,2013-01-11 12:47:00,
2013-01-11 07:51:00,30.0,24.0,29.76,SSE,158,0.0,0.0,78,0.00,,---,0.00,VWS V13.01,2013-01-11 12:51:00,
2013-01-11 07:53:00,30.2,24.2,29.76,SSE,158,0.0,0.0,78,0.00,,---,0.00,VWS V13.01,2013-01-11 12:53:00,
2013-01-11 07:56:00,30.2,24.2,29.76,SSE,158,0.0,0.0,78,0.00,,---,0.00,VWS V13.01,2013-01-11 12:56:00,
2013-01-11 07:58:00,30.2,24.2,29.76,SSE,158,0.0,0.0,78,0.00,,---,0.00,VWS V13.01,2013-01-11 12:58:00,
2013-01-11 08:01:00,30.2,24.2,29.76,SSE,158,0.0,0.0,78,0.00,,---,0.00,VWS V13.01,2013-01-11 13:01:00,
2013-01-11 08:03:00,30.6,24.5,29.76,SSE,158,0.0,0.0,78,0.00,,---,0.00,VWS V13.01,2013-01-11 13:03:00,
2013-01-11 08:06:00,30.6,24.5,29.76,SSE,158,0.0,0.0,78,0.00,,---,0.00,VWS V13.01,2013-01-11 13:06:00,
2013-01-11 08:08:00,30.6,24.5,29.76,SSE,158,0.0,0.0,78,0.00,,---,0.00,VWS V13.01,2013-01-11 13:08:00,
2013-01-11 08:11:00,30.6,24.5,29.76,South,180,0.0,0.0,78,0.00,,---,0.00,VWS V13.01,2013-01-11 13:11:00,
2013-01-11 08:12:00,30.6,24.5,29.76,South,180,0.0,0.0,78,0.00,,---,0.00,VWS V13.01,2013-01-11 13:12:00,
2013-01-11 08:13:00,30.6,24.5,29.76,South,180,0.0,0.0,78,0.00,,---,0.00,VWS V13.01,2013-01-11 13:13:00,
2013-01-11 08:16:00,30.6,24.5,29.76,SE,135,0.0,0.0,78,0.00,,---,0.00,VWS V13.01,2013-01-11 13:16:00,
2013-01-11 08:17:00,30.6,24.5,29.76,SE,135,0.0,0.0,78,0.00,,---,0.00,VWS V13.01,2013-01-11 13:17:00,
2013-01-11 08:18:00,30.6,24.5,29.76,SE,135,0.0,0.0,78,0.00,,---,0.00,VWS V13.01,2013-01-11 13:18:00,
2013-01-11 08:21:00,31.3,24.9,29.76,SE,135,0.0,0.0,77,0.00,,---,0.00,VWS V13.01,2013-01-11 13:21:00,
2013-01-11 08:22:00,31.3,24.9,29.76,SE,135,0.0,0.0,77,0.00,,---,0.00,VWS V13.01,2013-01-11 13:22:00,
2013-01-11 08:23:00,31.3,24.9,29.76,SE,135,0.0,0.0,77,0.00,,---,0.00,VWS V13.01,2013-01-11 13:23:00,
2013-01-11 08:26:00,31.3,24.9,29.76,SE,135,0.0,0.0,77,0.00,,---,0.00,VWS V13.01,2013-01-11 13:26:00,
2013-01-11 08:27:00,31.3,24.9,29.76,SSE,158,0.9,0.9,77,0.00,,---,0.00,VWS V13.01,2013-01-11 13:27:00,
2013-01-11 08:28:00,31.3,24.9,29.76,SSE,158,0.9,0.9,77,0.00,,---,0.00,VWS V13.01,2013-01-11 13:28:00,
2013-01-11 08:31:00,31.3,24.9,29.76,SSE,158,0.0,0.0,77,0.00,,---,0.00,VWS V13.01,2013-01-11 13:31:00,
2013-01-11 08:32:00,31.3,24.9,29.76,SSE,158,0.0,0.0,77,0.00,,---,0.00,VWS V13.01,2013-01-11 13:32:00,
2013-01-11 08:33:00,31.8,25.4,29.76,SSE,158,0.0,0.0,77,0.00,,---,0.00,VWS V13.01,2013-01-11 13:33:00,
2013-01-11 08:36:00,31.8,25.4,29.76,SSE,158,0.0,0.0,77,0.00,,---,0.00,VWS V13.01,2013-01-11 13:36:00,
2013-01-11 08:37:00,31.8,25.4,29.76,SSE,158,0.0,0.0,77,0.00,,---,0.00,VWS V13.01,2013-01-11 13:37:00,
2013-01-11 08:38:00,31.8,25.4,29.76,SSE,158,0.0,0.0,77,0.00,,---,0.00,VWS V13.01,2013-01-11 13:38:00,
2013-01-11 08:41:00,31.8,25.4,29.76,SSE,158,0.0,0.0,77,0.00,,---,0.00,VWS V13.01,2013-01-11 13:41:00,
2013-01-11 08:42:00,31.8,25.4,29.76,SSE,158,0.0,0.0,77,0.00,,---,0.00,VWS V13.01,2013-01-11 13:42:00,
2013-01-11 08:43:00,31.8,25.4,29.76,SSE,158,0.0,0.0,77,0.00,,---,0.00,VWS V13.01,2013-01-11 13:43:00,
2013-01-11 08:46:00,31.8,25.4,29.76,SSE,158,0.0,0.0,77,0.00,,---,0.00,VWS V13.01,2013-01-11 13:46:00,
2013-01-11 08:47:00,31.8,25.4,29.76,SSE,158,0.0,0.0,77,0.00,,---,0.00,VWS V13.01,2013-01-11 13:47:00,
2013-01-11 08:48:00,31.8,25.4,29.74,SSE,158,0.0,0.0,77,0.00,,---,0.00,VWS V13.01,2013-01-11 13:48:00,
2013-01-11 08:51:00,31.8,25.4,29.74,SSE,158,0.0,0.0,77,0.00,,---,0.00,VWS V13.01,2013-01-11 13:51:00,
2013-01-11 08:52:00,31.8,25.4,29.74,SSE,158,0.0,0.0,77,0.00,,---,0.00,VWS V13.01,2013-01-11 13:52:00,
2013-01-11 08:53:00,31.8,25.4,29.74,SSE,158,0.0,0.0,77,0.00,,---,0.00,VWS V13.01,2013-01-11 13:53:00,
2013-01-11 08:56:00,32.9,26.2,29.74,SSE,158,0.0,0.0,76,0.00,,---,0.00,VWS V13.01,2013-01-11 13:56:00,
2013-01-11 08:57:00,32.9,26.2,29.74,SSE,158,0.0,0.0,76,0.00,,---,0.00,VWS V13.01,2013-01-11 13:57:00,
2013-01-11 08:59:00,32.9,26.2,29.74,SSE,158,0.0,0.0,76,0.00,,---,0.00,VWS V13.01,2013-01-11 13:59:00,
2013-01-11 09:01:00,33.3,26.2,29.74,SSE,158,0.0,0.0,75,0.00,,---,0.00,VWS V13.01,2013-01-11 14:01:00,
2013-01-11 09:02:00,33.3,26.2,29.74,SSE,158,0.0,0.0,75,0.00,,---,0.00,VWS V13.01,2013-01-11 14:02:00,
2013-01-11 09:04:00,33.3,26.2,29.74,SSE,158,0.0,0.0,75,0.00,,---,0.00,VWS V13.01,2013-01-11 14:04:00,
2013-01-11 09:06:00,33.3,26.2,29.74,SSE,158,0.0,0.0,75,0.00,,---,0.00,VWS V13.01,2013-01-11 14:06:00,
2013-01-11 09:07:00,33.3,26.2,29.74,SSE,158,0.0,0.0,75,0.00,,---,0.00,VWS V13.01,2013-01-11 14:07:00,
2013-01-11 09:09:00,33.3,26.2,29.74,SSE,158,0.0,0.0,75,0.00,,---,0.00,VWS V13.01,2013-01-11 14:09:00,
2013-01-11 09:12:00,33.3,26.2,29.74,SSE,158,0.0,0.0,75,0.00,,---,0.00,VWS V13.01,2013-01-11 14:12:00,
2013-01-11 09:13:00,33.3,26.2,29.74,SSE,158,0.0,0.0,75,0.00,,---,0.00,VWS V13.01,2013-01-11 14:13:00,
2013-01-11 09:14:00,33.3,26.2,29.74,SSE,158,0.0,0.0,75,0.00,,---,0.00,VWS V13.01,2013-01-11 14:14:00,
2013-01-11 09:17:00,34.2,26.1,29.74,SSE,158,0.0,0.0,72,0.00,,---,0.00,VWS V13.01,2013-01-11 14:17:00,
2013-01-11 09:18:00,34.2,26.1,29.74,SSE,158,0.0,0.0,72,0.00,,---,0.00,VWS V13.01,2013-01-11 14:18:00,
2013-01-11 09:19:00,34.2,26.1,29.74,SSE,158,0.0,0.0,72,0.00,,---,0.00,VWS V13.01,2013-01-11 14:19:00,
2013-01-11 09:22:00,34.2,26.1,29.74,SSE,158,0.0,0.0,72,0.00,,---,0.00,VWS V13.01,2013-01-11 14:22:00,
2013-01-11 09:23:00,34.2,26.1,29.74,SSE,158,0.0,0.0,72,0.00,,---,0.00,VWS V13.01,2013-01-11 14:23:00,
2013-01-11 09:24:00,34.2,26.1,29.74,SSE,158,0.0,0.0,72,0.00,,---,0.00,VWS V13.01,2013-01-11 14:24:00,
2013-01-11 09:27:00,34.7,26.6,29.74,SSE,158,0.0,0.0,72,0.00,,---,0.00,VWS V13.01,2013-01-11 14:27:00,
2013-01-11 09:28:00,34.7,26.6,29.74,SSE,158,0.0,0.0,72,0.00,,---,0.00,VWS V13.01,2013-01-11 14:28:00,
2013-01-11 09:29:00,34.7,26.6,29.74,SSE,158,0.0,0.0,72,0.00,,---,0.00,VWS V13.01,2013-01-11 14:29:00,
2013-01-11 09:32:00,34.7,26.6,29.74,SSE,158,0.0,0.0,72,0.00,,---,0.00,VWS V13.01,2013-01-11 14:32:00,
2013-01-11 09:33:00,34.7,26.6,29.74,SSE,158,0.0,0.0,72,0.00,,---,0.00,VWS V13.01,2013-01-11 14:33:00,
2013-01-11 09:34:00,34.7,26.6,29.74,SSE,158,0.0,0.0,72,0.00,,---,0.00,VWS V13.01,2013-01-11 14:34:00,
2013-01-11 09:38:00,34.7,26.6,29.74,South,180,2.5,2.5,72,0.00,,---,0.00,VWS V13.01,2013-01-11 14:38:00,
2013-01-11 09:39:00,34.7,26.6,29.74,South,180,2.5,2.5,72,0.00,,---,0.00,VWS V13.01,2013-01-11 14:39:00,
2013-01-11 09:42:00,34.7,26.6,29.74,SSE,158,1.6,1.6,72,0.00,,---,0.00,VWS V13.01,2013-01-11 14:42:00,
2013-01-11 09:43:00,34.7,26.6,29.74,SSE,158,1.6,1.6,72,0.00,,---,0.00,VWS V13.01,2013-01-11 14:43:00,
2013-01-11 09:44:00,34.7,26.6,29.74,SSE,158,0.0,0.0,72,0.00,,---,0.00,VWS V13.01,2013-01-11 14:44:00,
2013-01-11 09:48:00,35.6,26.1,29.74,SSE,158,0.0,0.0,68,0.00,,---,0.00,VWS V13.01,2013-01-11 14:48:00,
2013-01-11 09:49:00,35.6,26.1,29.74,SSE,158,0.0,0.0,68,0.00,,---,0.00,VWS V13.01,2013-01-11 14:49:00,
2013-01-11 09:53:00,35.6,26.1,29.74,South,180,0.0,0.0,68,0.00,,---,0.00,VWS V13.01,2013-01-11 14:53:00,
2013-01-11 09:54:00,35.6,26.1,29.74,South,180,0.0,0.0,68,0.00,,---,0.00,VWS V13.01,2013-01-11 14:54:00,
2013-01-11 09:58:00,35.6,26.1,29.74,South,180,0.0,2.0,68,0.00,,---,0.00,VWS V13.01,2013-01-11 14:58:00,
2013-01-11 09:59:00,35.6,26.1,29.74,SSE,158,0.0,0.0,68,0.00,,---,0.00,VWS V13.01,2013-01-11 14:59:00,
2013-01-11 10:03:00,35.6,26.1,29.74,SSE,158,1.6,1.6,68,0.00,,---,0.00,VWS V13.01,2013-01-11 15:03:00,
2013-01-11 10:04:00,35.6,26.1,29.74,SSE,158,1.1,1.1,68,0.00,,---,0.00,VWS V13.01,2013-01-11 15:04:00,
2013-01-11 10:05:00,35.6,26.1,29.74,SSE,158,1.1,1.1,68,0.00,,---,0.00,VWS V13.01,2013-01-11 15:05:00,
2013-01-11 10:08:00,36.1,25.9,29.74,SSW,202,1.6,1.6,66,0.00,,---,0.00,VWS V13.01,2013-01-11 15:08:00,
2013-01-11 10:10:00,36.1,25.9,29.74,SSE,158,0.0,0.0,66,0.00,,---,0.00,VWS V13.01,2013-01-11 15:10:00,
2013-01-11 10:13:00,36.1,25.9,29.74,SE,135,0.0,0.0,66,0.00,,---,0.00,VWS V13.01,2013-01-11 15:13:00,
2013-01-11 10:15:00,36.1,25.9,29.74,SE,135,0.0,0.0,66,0.00,,---,0.00,VWS V13.01,2013-01-11 15:15:00,
2013-01-11 10:18:00,36.1,25.9,29.74,South,180,0.0,0.0,66,0.00,,---,0.00,VWS V13.01,2013-01-11 15:18:00,
2013-01-11 10:19:00,36.3,26.4,29.74,South,180,0.0,0.0,67,0.00,,---,0.00,VWS V13.01,2013-01-11 15:19:00,
2013-01-11 10:20:00,36.3,26.4,29.74,South,180,0.0,0.0,67,0.00,,---,0.00,VWS V13.01,2013-01-11 15:20:00,
2013-01-11 10:21:00,36.3,26.4,29.74,SSE,158,0.0,0.0,67,0.00,,---,0.00,VWS V13.01,2013-01-11 15:21:00,
2013-01-11 10:23:00,36.3,26.4,29.74,SSE,158,1.1,1.1,67,0.00,,---,0.00,VWS V13.01,2013-01-11 15:23:00,
2013-01-11 10:24:00,36.3,26.4,29.74,SSE,158,1.1,1.1,67,0.00,,---,0.00,VWS V13.01,2013-01-11 15:24:00,
2013-01-11 10:25:00,36.5,26.6,29.74,SSE,158,0.0,1.1,67,0.00,,---,0.00,VWS V13.01,2013-01-11 15:25:00,
2013-01-11 10:26:00,36.5,26.6,29.74,SSE,158,0.0,0.0,67,0.00,,---,0.00,VWS V13.01,2013-01-11 15:26:00,
2013-01-11 10:28:00,36.5,26.6,29.74,SSE,158,0.0,0.0,67,0.00,,---,0.00,VWS V13.01,2013-01-11 15:28:00,
2013-01-11 10:29:00,36.5,26.6,29.74,SSE,158,0.0,0.0,67,0.00,,---,0.00,VWS V13.01,2013-01-11 15:29:00,
2013-01-11 10:30:00,36.5,26.6,29.74,SSE,158,0.0,0.0,67,0.00,,---,0.00,VWS V13.01,2013-01-11 15:30:00,
2013-01-11 10:31:00,36.5,26.6,29.74,SSE,158,0.0,0.0,67,0.00,,---,0.00,VWS V13.01,2013-01-11 15:31:00,
2013-01-11 10:33:00,36.5,26.6,29.74,SSE,158,0.0,0.0,67,0.00,,---,0.00,VWS V13.01,2013-01-11 15:33:00,
2013-01-11 10:34:00,36.5,26.6,29.74,SSE,158,0.0,0.0,67,0.00,,---,0.00,VWS V13.01,2013-01-11 15:34:00,
2013-01-11 10:35:00,36.5,26.6,29.74,SSE,158,0.0,0.0,67,0.00,,---,0.00,VWS V13.01,2013-01-11 15:35:00,
2013-01-11 10:36:00,36.5,26.6,29.74,SSE,158,0.0,0.0,67,0.00,,---,0.00,VWS V13.01,2013-01-11 15:36:00,
2013-01-11 10:39:00,36.7,26.4,29.74,SSE,158,0.0,2.0,66,0.00,,---,0.00,VWS V13.01,2013-01-11 15:39:00,
2013-01-11 10:40:00,36.7,26.4,29.74,SSE,158,0.9,0.9,66,0.00,,---,0.00,VWS V13.01,2013-01-11 15:40:00,
2013-01-11 10:41:00,36.7,26.4,29.74,SSE,158,0.9,0.9,66,0.00,,---,0.00,VWS V13.01,2013-01-11 15:41:00,
2013-01-11 10:44:00,36.7,26.4,29.74,SSE,158,0.0,0.0,66,0.00,,---,0.00,VWS V13.01,2013-01-11 15:44:00,
2013-01-11 10:46:00,36.7,26.4,29.74,SSE,158,0.0,0.0,66,0.00,,---,0.00,VWS V13.01,2013-01-11 15:46:00,
2013-01-11 10:49:00,36.7,26.4,29.71,SE,135,0.0,0.0,66,0.00,,---,0.00,VWS V13.01,2013-01-11 15:49:00,
2013-01-11 10:51:00,36.7,26.4,29.71,SE,135,0.0,0.0,66,0.00,,---,0.00,VWS V13.01,2013-01-11 15:51:00,
2013-01-11 10:54:00,36.7,26.4,29.71,South,180,0.0,0.9,66,0.00,,---,0.00,VWS V13.01,2013-01-11 15:54:00,
2013-01-11 10:56:00,36.7,26.4,29.71,South,180,0.0,0.0,66,0.00,,---,0.00,VWS V13.01,2013-01-11 15:56:00,
2013-01-11 10:59:00,36.7,26.4,29.71,South,180,1.1,1.1,66,0.00,,---,0.00,VWS V13.01,2013-01-11 15:59:00,
2013-01-11 11:01:00,36.7,26.4,29.71,South,180,0.0,1.1,66,0.00,,---,0.00,VWS V13.01,2013-01-11 16:01:00,
2013-01-11 11:04:00,37.0,26.8,29.71,SSE,158,1.6,1.6,66,0.00,,---,0.00,VWS V13.01,2013-01-11 16:04:00,
2013-01-11 11:05:00,37.0,26.8,29.71,SSE,158,1.6,1.6,66,0.00,,---,0.00,VWS V13.01,2013-01-11 16:05:00,
2013-01-11 11:06:00,37.0,26.8,29.71,SSE,158,1.6,1.6,66,0.00,,---,0.00,VWS V13.01,2013-01-11 16:06:00,
2013-01-11 11:08:00,37.0,26.4,29.71,SE,135,0.0,0.0,65,0.00,,---,0.00,VWS V13.01,2013-01-11 16:08:00,
2013-01-11 11:09:00,37.0,26.4,29.71,SE,135,0.0,0.0,65,0.00,,---,0.00,VWS V13.01,2013-01-11 16:09:00,
2013-01-11 11:10:00,37.0,26.4,29.71,SE,135,0.0,0.0,65,0.00,,---,0.00,VWS V13.01,2013-01-11 16:10:00,
2013-01-11 11:11:00,37.0,26.4,29.71,South,180,0.9,0.9,65,0.00,,---,0.00,VWS V13.01,2013-01-11 16:11:00,
2013-01-11 11:14:00,37.0,26.8,29.71,SSW,202,0.0,0.0,66,0.00,,---,0.00,VWS V13.01,2013-01-11 16:14:00,
2013-01-11 11:15:00,37.0,26.8,29.71,SSW,202,0.0,0.0,66,0.00,,---,0.00,VWS V13.01,2013-01-11 16:15:00,
2013-01-11 11:16:00,37.0,26.8,29.71,SSW,202,0.0,0.0,66,0.00,,---,0.00,VWS V13.01,2013-01-11 16:16:00,
2013-01-11 11:19:00,37.0,26.8,29.68,SSE,158,0.0,0.0,66,0.00,,---,0.00,VWS V13.01,2013-01-11 16:19:00,
2013-01-11 11:20:00,37.0,26.8,29.68,SSE,158,0.0,0.0,66,0.00,,---,0.00,VWS V13.01,2013-01-11 16:20:00,
2013-01-11 11:21:00,37.0,26.8,29.68,SSE,158,0.0,0.0,66,0.00,,---,0.00,VWS V13.01,2013-01-11 16:21:00,
2013-01-11 11:24:00,37.0,26.8,29.68,SE,135,0.0,0.0,66,0.00,,---,0.00,VWS V13.01,2013-01-11 16:24:00,
2013-01-11 11:25:00,37.0,26.8,29.68,SE,135,0.0,0.0,66,0.00,,---,0.00,VWS V13.01,2013-01-11 16:25:00,
2013-01-11 11:27:00,37.0,26.8,29.68,SSE,158,0.0,0.0,66,0.00,,---,0.00,VWS V13.01,2013-01-11 16:27:00,
2013-01-11 11:29:00,37.0,26.8,29.68,SSE,158,0.0,0.0,66,0.00,,---,0.00,VWS V13.01,2013-01-11 16:29:00,
2013-01-11 11:30:00,37.0,26.8,29.68,SE,135,0.0,0.0,66,0.00,,---,0.00,VWS V13.01,2013-01-11 16:30:00,
2013-01-11 11:31:00,37.0,26.8,29.68,SE,135,0.0,0.0,66,0.00,,---,0.00,VWS V13.01,2013-01-11 16:31:00,
2013-01-11 11:32:00,37.0,26.8,29.68,SE,135,0.0,0.0,66,0.00,,---,0.00,VWS V13.01,2013-01-11 16:32:00,
2013-01-11 11:34:00,37.4,27.1,29.68,SSE,158,1.3,1.3,66,0.00,,---,0.00,VWS V13.01,2013-01-11 16:34:00,
2013-01-11 11:35:00,37.4,27.1,29.68,South,180,0.0,0.0,66,0.00,,---,0.00,VWS V13.01,2013-01-11 16:35:00,
2013-01-11 11:36:00,37.4,27.1,29.68,South,180,0.9,0.9,66,0.00,,---,0.00,VWS V13.01,2013-01-11 16:36:00,
2013-01-11 11:37:00,37.4,27.1,29.68,SE,135,2.5,2.5,66,0.00,,---,0.00,VWS V13.01,2013-01-11 16:37:00,
2013-01-11 11:39:00,37.4,27.1,29.68,SE,135,2.5,2.5,66,0.00,,---,0.00,VWS V13.01,2013-01-11 16:39:00,
2013-01-11 11:40:00,37.4,27.1,29.68,SE,135,0.0,0.0,66,0.00,,---,0.00,VWS V13.01,2013-01-11 16:40:00,
2013-01-11 11:41:00,37.4,27.1,29.68,SE,135,0.0,0.0,66,0.00,,---,0.00,VWS V13.01,2013-01-11 16:41:00,
2013-01-11 11:42:00,37.4,27.1,29.68,SSE,158,1.6,1.6,66,0.00,,---,0.00,VWS V13.01,2013-01-11 16:42:00,
2013-01-11 11:44:00,37.4,27.1,29.68,NE,45,0.9,1.6,66,0.00,,---,0.00,VWS V13.01,2013-01-11 16:44:00,
2013-01-11 11:45:00,37.4,27.1,29.68,SSW,202,2.7,2.7,66,0.00,,---,0.00,VWS V13.01,2013-01-11 16:45:00,
2013-01-11 11:46:00,37.4,27.1,29.68,South,180,0.9,2.7,66,0.00,,---,0.00,VWS V13.01,2013-01-11 16:46:00,
2013-01-11 11:48:00,37.4,27.1,29.68,South,180,0.9,0.9,66,0.00,,---,0.00,VWS V13.01,2013-01-11 16:48:00,
2013-01-11 11:49:00,37.4,27.1,29.68,South,180,0.0,0.9,66,0.00,,---,0.00,VWS V13.01,2013-01-11 16:49:00,
2013-01-11 11:50:00,37.4,27.1,29.68,South,180,0.0,0.0,66,0.00,,---,0.00,VWS V13.01,2013-01-11 16:50:00,
2013-01-11 11:52:00,37.4,27.1,29.68,SSE,158,0.0,0.0,66,0.00,,---,0.00,VWS V13.01,2013-01-11 16:52:00,
2013-01-11 11:53:00,37.4,27.1,29.68,SSE,158,1.1,1.1,66,0.00,,---,0.00,VWS V13.01,2013-01-11 16:53:00,
2013-01-11 11:54:00,37.4,27.1,29.68,SE,135,0.0,1.1,66,0.00,,---,0.00,VWS V13.01,2013-01-11 16:54:00,
2013-01-11 11:55:00,37.4,27.1,29.68,South,180,0.0,0.0,66,0.00,,---,0.00,VWS V13.01,2013-01-11 16:55:00,
2013-01-11 11:57:00,37.6,27.3,29.68,SSE,158,2.0,2.0,66,0.00,,---,0.00,VWS V13.01,2013-01-11 16:57:00,
2013-01-11 11:58:00,37.6,27.3,29.68,SW,225,0.9,0.9,66,0.00,,---,0.00,VWS V13.01,2013-01-11 16:58:00,
2013-01-11 11:59:00,37.6,27.3,29.68,SSW,202,0.9,0.9,66,0.00,,---,0.00,VWS V13.01,2013-01-11 16:59:00,
2013-01-11 12:00:00,37.6,27.3,29.68,SSE,158,2.0,2.0,66,0.00,,---,0.00,VWS V13.01,2013-01-11 17:00:00,
2013-01-11 12:02:00,37.8,27.4,29.68,SSE,158,2.0,2.0,66,0.00,,---,0.00,VWS V13.01,2013-01-11 17:02:00,
2013-01-11 12:03:00,37.8,27.4,29.68,SSE,158,2.0,2.0,66,0.00,,---,0.00,VWS V13.01,2013-01-11 17:03:00,
2013-01-11 12:04:00,37.8,27.4,29.68,SSW,202,2.5,2.5,66,0.00,,---,0.00,VWS V13.01,2013-01-11 17:04:00,
2013-01-11 12:05:00,37.8,27.4,29.68,SSE,158,1.1,2.5,66,0.00,,---,0.00,VWS V13.01,2013-01-11 17:05:00,
2013-01-11 12:07:00,37.8,27.4,29.68,SSE,158,0.0,1.1,66,0.00,,---,0.00,VWS V13.01,2013-01-11 17:07:00,
2013-01-11 12:08:00,37.8,27.4,29.68,SSE,158,0.0,0.0,66,0.00,,---,0.00,VWS V13.01,2013-01-11 17:08:00,
2013-01-11 12:09:00,37.8,27.4,29.68,SE,135,0.0,0.0,66,0.00,,---,0.00,VWS V13.01,2013-01-11 17:09:00,
2013-01-11 12:10:00,37.8,27.4,29.65,SE,135,0.0,0.0,66,0.00,,---,0.00,VWS V13.01,2013-01-11 17:10:00,
2013-01-11 12:12:00,37.8,27.4,29.65,SSW,202,1.6,1.6,66,0.00,,---,0.00,VWS V13.01,2013-01-11 17:12:00,
2013-01-11 12:13:00,37.8,27.4,29.65,South,180,2.5,2.5,66,0.00,,---,0.00,VWS V13.01,2013-01-11 17:13:00,
2013-01-11 12:14:00,37.8,27.4,29.65,South,180,0.0,2.5,66,0.00,,---,0.00,VWS V13.01,2013-01-11 17:14:00,
2013-01-11 12:16:00,37.8,27.4,29.65,SSE,158,0.9,2.9,66,0.00,,---,0.00,VWS V13.01,2013-01-11 17:16:00,
2013-01-11 12:17:00,37.8,27.4,29.65,SSE,158,0.0,0.9,66,0.00,,---,0.00,VWS V13.01,2013-01-11 17:17:00,
2013-01-11 12:18:00,37.8,27.4,29.65,SSE,158,3.4,3.4,66,0.00,,---,0.00,VWS V13.01,2013-01-11 17:18:00,
2013-01-11 12:19:00,37.8,27.4,29.65,SSE,158,2.0,3.4,66,0.00,,---,0.00,VWS V13.01,2013-01-11 17:19:00,
2013-01-11 12:21:00,37.8,27.4,29.65,SE,135,0.0,0.0,66,0.00,,---,0.00,VWS V13.01,2013-01-11 17:21:00,
2013-01-11 12:22:00,37.8,27.4,29.65,SSE,158,0.0,0.0,66,0.00,,---,0.00,VWS V13.01,2013-01-11 17:22:00,
2013-01-11 12:24:00,37.8,27.4,29.65,SSE,158,3.6,3.6,66,0.00,,---,0.00,VWS V13.01,2013-01-11 17:24:00,
2013-01-11 12:26:00,37.9,28.0,29.65,SE,135,0.9,0.9,67,0.00,,---,0.00,VWS V13.01,2013-01-11 17:26:00,
2013-01-11 12:27:00,37.9,28.0,29.65,SE,135,0.0,0.9,67,0.00,,---,0.00,VWS V13.01,2013-01-11 17:27:00,
2013-01-11 12:29:00,37.9,28.0,29.65,SE,135,0.0,0.0,67,0.00,,---,0.00,VWS V13.01,2013-01-11 17:29:00,
2013-01-11 12:31:00,37.9,28.0,29.65,South,180,0.0,0.0,67,0.00,,---,0.00,VWS V13.01,2013-01-11 17:31:00,
2013-01-11 12:33:00,37.9,28.0,29.65,SSE,158,0.0,0.0,67,0.00,,---,0.00,VWS V13.01,2013-01-11 17:33:00,
2013-01-11 12:34:00,37.9,28.0,29.62,SSE,158,0.0,0.0,67,0.00,,---,0.00,VWS V13.01,2013-01-11 17:34:00,
2013-01-11 12:36:00,37.9,28.0,29.62,SE,135,0.0,0.0,67,0.00,,---,0.00,VWS V13.01,2013-01-11 17:36:00,
2013-01-11 12:38:00,37.9,28.0,29.62,SSE,158,0.0,0.0,67,0.00,,---,0.00,VWS V13.01,2013-01-11 17:38:00,
2013-01-11 12:39:00,37.9,28.0,29.62,SSE,158,0.0,0.0,67,0.00,,---,0.00,VWS V13.01,2013-01-11 17:39:00,
2013-01-11 12:40:00,37.9,28.0,29.62,SE,135,1.1,1.1,67,0.00,,---,0.00,VWS V13.01,2013-01-11 17:40:00,
2013-01-11 12:41:00,37.9,28.0,29.62,ESE,112,2.0,2.0,67,0.00,,---,0.00,VWS V13.01,2013-01-11 17:41:00,
2013-01-11 12:43:00,37.9,28.0,29.62,ESE,112,0.0,0.0,67,0.00,,---,0.00,VWS V13.01,2013-01-11 17:43:00,
2013-01-11 12:44:00,37.9,28.0,29.62,ESE,112,0.0,0.0,67,0.00,,---,0.00,VWS V13.01,2013-01-11 17:44:00,
2013-01-11 12:45:00,37.9,28.0,29.62,SE,135,2.0,2.0,67,0.00,,---,0.00,VWS V13.01,2013-01-11 17:45:00,
2013-01-11 12:46:00,37.9,28.0,29.62,SSE,158,1.3,2.2,67,0.00,,---,0.00,VWS V13.01,2013-01-11 17:46:00,
2013-01-11 12:48:00,37.9,28.0,29.62,SSW,202,4.0,4.0,67,0.00,,---,0.00,VWS V13.01,2013-01-11 17:48:00,
2013-01-11 12:49:00,39.0,29.0,29.62,SSE,158,0.9,4.0,67,0.00,,---,0.00,VWS V13.01,2013-01-11 17:49:00,
2013-01-11 12:50:00,39.0,29.0,29.62,SSE,158,2.5,2.5,67,0.00,,---,0.00,VWS V13.01,2013-01-11 17:50:00,
2013-01-11 12:51:00,39.0,29.0,29.62,SSE,158,2.5,2.5,67,0.00,,---,0.00,VWS V13.01,2013-01-11 17:51:00,
2013-01-11 12:57:00,39.0,29.0,29.62,SSE,158,0.0,0.0,67,0.00,,---,0.00,VWS V13.01,2013-01-11 17:57:00,
2013-01-11 12:58:00,38.5,28.5,29.62,SE,135,0.0,0.0,67,0.00,,---,0.00,VWS V13.01,2013-01-11 17:58:00,
2013-01-11 13:02:00,38.5,28.5,29.62,SE,135,0.0,0.0,67,0.00,,---,0.00,VWS V13.01,2013-01-11 18:02:00,
2013-01-11 13:03:00,38.5,28.5,29.62,SE,135,1.1,1.1,67,0.00,,---,0.00,VWS V13.01,2013-01-11 18:03:00,
2013-01-11 13:07:00,38.5,28.5,29.62,SSE,158,0.0,0.0,67,0.00,,---,0.00,VWS V13.01,2013-01-11 18:07:00,
2013-01-11 13:08:00,38.5,28.5,29.62,SE,135,1.3,1.3,67,0.00,,---,0.00,VWS V13.01,2013-01-11 18:08:00,
2013-01-11 13:12:00,38.5,28.5,29.62,SSE,158,0.0,0.0,67,0.00,,---,0.00,VWS V13.01,2013-01-11 18:12:00,
2013-01-11 13:13:00,38.5,28.5,29.62,SE,135,0.0,0.0,67,0.00,,---,0.00,VWS V13.01,2013-01-11 18:13:00,
2013-01-11 13:17:00,38.5,28.5,29.62,SSE,158,0.0,0.0,67,0.00,,---,0.00,VWS V13.01,2013-01-11 18:17:00,
2013-01-11 13:18:00,38.5,28.5,29.62,SSE,158,0.0,0.0,67,0.00,,---,0.00,VWS V13.01,2013-01-11 18:18:00,
2013-01-11 13:22:00,38.3,28.7,29.62,SSE,158,1.3,1.3,68,0.00,,---,0.00,VWS V13.01,2013-01-11 18:22:00,
2013-01-11 13:23:00,38.3,28.7,29.62,SSE,158,1.1,1.3,68,0.00,,---,0.00,VWS V13.01,2013-01-11 18:23:00,
2013-01-11 13:24:00,38.3,28.7,29.62,SSE,158,2.0,2.0,68,0.00,,---,0.00,VWS V13.01,2013-01-11 18:24:00,
2013-01-11 13:28:00,38.3,28.7,29.62,SSE,158,2.2,2.2,68,0.00,,---,0.00,VWS V13.01,2013-01-11 18:28:00,
2013-01-11 13:30:00,38.3,28.7,29.62,South,180,1.1,1.1,68,0.00,,---,0.00,VWS V13.01,2013-01-11 18:30:00,
2013-01-11 13:33:00,38.3,28.7,29.62,SSE,158,0.0,0.0,68,0.00,,---,0.00,VWS V13.01,2013-01-11 18:33:00,
2013-01-11 13:34:00,38.3,28.7,29.62,SSE,158,1.1,1.1,68,0.00,,---,0.00,VWS V13.01,2013-01-11 18:34:00,
2013-01-11 13:38:00,38.1,28.9,29.62,SSE,158,0.0,0.0,69,0.00,,---,0.00,VWS V13.01,2013-01-11 18:38:00,
2013-01-11 13:40:00,38.1,28.9,29.62,SSE,158,0.0,0.0,69,0.00,,---,0.00,VWS V13.01,2013-01-11 18:40:00,
2013-01-11 13:43:00,38.1,28.9,29.62,SE,135,1.1,1.1,69,0.00,,---,0.00,VWS V13.01,2013-01-11 18:43:00,
2013-01-11 13:45:00,38.1,29.2,29.62,SSE,158,2.0,2.0,70,0.00,,---,0.00,VWS V13.01,2013-01-11 18:45:00,
2013-01-11 13:48:00,38.1,29.2,29.62,SSE,158,1.3,1.3,70,0.00,,---,0.00,VWS V13.01,2013-01-11 18:48:00,
2013-01-11 13:50:00,38.1,29.2,29.62,SSE,158,0.9,0.9,70,0.00,,---,0.00,VWS V13.01,2013-01-11 18:50:00,
2013-01-11 13:53:00,38.1,29.2,29.62,SE,135,0.0,0.0,70,0.00,,---,0.00,VWS V13.01,2013-01-11 18:53:00,
2013-01-11 13:55:00,38.1,29.2,29.62,SE,135,0.0,0.0,70,0.00,,---,0.00,VWS V13.01,2013-01-11 18:55:00,
2013-01-11 13:58:00,38.1,29.2,29.62,SSE,158,1.1,1.1,70,0.00,,---,0.00,VWS V13.01,2013-01-11 18:58:00,
2013-01-11 13:59:00,38.1,29.2,29.62,SSE,158,0.0,1.1,70,0.00,,---,0.00,VWS V13.01,2013-01-11 18:59:00,
2013-01-11 14:00:00,38.1,29.2,29.62,SSE,158,0.0,0.0,70,0.00,,---,0.00,VWS V13.01,2013-01-11 19:00:00,
2013-01-11 14:03:00,38.1,29.2,29.62,SSE,158,0.0,0.0,70,0.00,,---,0.00,VWS V13.01,2013-01-11 19:03:00,
2013-01-11 14:04:00,38.1,29.2,29.62,SSE,158,0.0,0.0,70,0.00,,---,0.00,VWS V13.01,2013-01-11 19:04:00,
2013-01-11 14:05:00,38.1,29.2,29.62,SSE,158,0.0,0.0,70,0.00,,---,0.00,VWS V13.01,2013-01-11 19:05:00,
2013-01-11 14:08:00,38.1,29.2,29.62,SSE,158,0.0,0.0,70,0.00,,---,0.00,VWS V13.01,2013-01-11 19:08:00,
2013-01-11 14:09:00,38.1,29.2,29.62,SSE,158,0.0,0.0,70,0.00,,---,0.00,VWS V13.01,2013-01-11 19:09:00,
2013-01-11 14:10:00,38.1,29.2,29.62,SE,135,0.0,0.0,70,0.00,,---,0.00,VWS V13.01,2013-01-11 19:10:00,
2013-01-11 14:13:00,36.9,29.7,29.62,SSE,158,0.0,0.0,75,0.00,,---,0.00,VWS V13.01,2013-01-11 19:13:00,
2013-01-11 14:14:00,36.9,29.7,29.62,SSE,158,0.0,0.0,75,0.00,,---,0.00,VWS V13.01,2013-01-11 19:14:00,
2013-01-11 14:15:00,36.9,29.7,29.62,SSE,158,0.0,0.0,75,0.00,,---,0.00,VWS V13.01,2013-01-11 19:15:00,
2013-01-11 14:18:00,36.9,29.7,29.62,SSE,158,0.0,0.0,75,0.00,,---,0.00,VWS V13.01,2013-01-11 19:18:00,
2013-01-11 14:19:00,36.9,29.7,29.62,SSE,158,0.0,0.0,75,0.00,,---,0.00,VWS V13.01,2013-01-11 19:19:00,
2013-01-11 14:20:00,36.9,29.7,29.62,SSE,158,0.0,0.0,75,0.00,,---,0.00,VWS V13.01,2013-01-11 19:20:00,
2013-01-11 14:23:00,36.9,29.7,29.62,SSE,158,0.0,0.0,75,0.00,,---,0.00,VWS V13.01,2013-01-11 19:23:00,
2013-01-11 14:24:00,36.9,29.7,29.62,SSE,158,1.1,1.1,75,0.00,,---,0.00,VWS V13.01,2013-01-11 19:24:00,
2013-01-11 14:25:00,36.9,29.7,29.62,SSE,158,0.0,0.0,75,0.00,,---,0.00,VWS V13.01,2013-01-11 19:25:00,
2013-01-11 14:29:00,36.7,29.8,29.62,SSE,158,0.0,0.0,76,0.00,,---,0.00,VWS V13.01,2013-01-11 19:29:00,
2013-01-11 14:30:00,36.7,29.8,29.62,SSE,158,0.0,0.0,76,0.00,,---,0.00,VWS V13.01,2013-01-11 19:30:00,
2013-01-11 14:34:00,36.7,29.8,29.62,SSE,158,0.0,0.0,76,0.00,,---,0.00,VWS V13.01,2013-01-11 19:34:00,
2013-01-11 14:35:00,36.3,29.8,29.62,SSE,158,0.0,0.0,77,0.00,,---,0.00,VWS V13.01,2013-01-11 19:35:00,
2013-01-11 14:39:00,36.3,29.8,29.62,SSE,158,0.0,0.0,77,0.00,,---,0.00,VWS V13.01,2013-01-11 19:39:00,
2013-01-11 14:40:00,36.3,29.8,29.62,SSE,158,0.0,0.0,77,0.00,,---,0.00,VWS V13.01,2013-01-11 19:40:00,
2013-01-11 14:44:00,36.3,29.8,29.62,SSE,158,0.0,0.0,77,0.00,,---,0.00,VWS V13.01,2013-01-11 19:44:00,
2013-01-11 14:45:00,36.3,29.8,29.62,SSE,158,0.0,0.0,77,0.00,,---,0.00,VWS V13.01,2013-01-11 19:45:00,
2013-01-11 14:49:00,36.1,30.0,29.62,SSE,158,0.0,0.0,78,0.00,,---,0.00,VWS V13.01,2013-01-11 19:49:00,
2013-01-11 14:50:00,36.1,30.0,29.62,SSE,158,0.0,0.0,78,0.00,,---,0.00,VWS V13.01,2013-01-11 19:50:00,
2013-01-11 14:54:00,36.1,30.0,29.62,SSE,158,0.0,0.0,78,0.00,,---,0.00,VWS V13.01,2013-01-11 19:54:00,
2013-01-11 14:55:00,36.1,30.0,29.62,SSE,158,0.0,0.0,78,0.00,,---,0.00,VWS V13.01,2013-01-11 19:55:00,
2013-01-11 14:59:00,36.1,30.0,29.59,SSE,158,0.0,0.0,78,0.00,,---,0.00,VWS V13.01,2013-01-11 19:59:00,
2013-01-11 15:01:00,36.1,30.0,29.59,SSE,158,0.0,0.0,78,0.00,,---,0.00,VWS V13.01,2013-01-11 20:01:00,
2013-01-11 15:04:00,36.1,30.0,29.59,SSE,158,0.0,0.0,78,0.00,,---,0.00,VWS V13.01,2013-01-11 20:04:00,
2013-01-11 15:05:00,36.1,30.0,29.59,SSE,158,0.0,0.0,78,0.00,,---,0.00,VWS V13.01,2013-01-11 20:05:00,
2013-01-11 15:06:00,36.1,30.3,29.59,SSE,158,0.0,0.0,79,0.00,,---,0.00,VWS V13.01,2013-01-11 20:06:00,
2013-01-11 15:09:00,36.1,30.3,29.59,SSE,158,0.0,0.0,79,0.00,,---,0.00,VWS V13.01,2013-01-11 20:09:00,
2013-01-11 15:10:00,36.1,30.3,29.59,SSE,158,0.0,0.0,79,0.00,,---,0.00,VWS V13.01,2013-01-11 20:10:00,
2013-01-11 15:12:00,36.1,30.3,29.59,SSE,158,0.0,0.0,79,0.00,,---,0.00,VWS V13.01,2013-01-11 20:12:00,
2013-01-11 15:14:00,36.1,30.3,29.59,SSE,158,0.0,0.0,79,0.00,,---,0.00,VWS V13.01,2013-01-11 20:14:00,
2013-01-11 15:15:00,36.1,30.3,29.59,SSE,158,0.0,0.0,79,0.00,,---,0.00,VWS V13.01,2013-01-11 20:15:00,
2013-01-11 15:17:00,36.1,30.3,29.59,SSE,158,0.0,0.0,79,0.00,,---,0.00,VWS V13.01,2013-01-11 20:17:00,
2013-01-11 15:19:00,36.1,30.3,29.59,SSE,158,0.0,0.0,79,0.00,,---,0.00,VWS V13.01,2013-01-11 20:19:00,
2013-01-11 15:20:00,36.1,30.3,29.59,SSE,158,0.0,0.0,79,0.00,,---,0.00,VWS V13.01,2013-01-11 20:20:00,
2013-01-11 15:22:00,36.1,30.3,29.59,SSE,158,0.0,0.0,79,0.00,,---,0.00,VWS V13.01,2013-01-11 20:22:00,
2013-01-11 15:25:00,36.1,30.3,29.59,SSE,158,0.0,0.0,79,0.00,,---,0.00,VWS V13.01,2013-01-11 20:25:00,
2013-01-11 15:27:00,36.1,30.3,29.59,SSE,158,0.0,0.0,79,0.00,,---,0.00,VWS V13.01,2013-01-11 20:27:00,
2013-01-11 15:30:00,36.3,30.8,29.59,SSE,158,0.0,0.0,80,0.00,,---,0.00,VWS V13.01,2013-01-11 20:30:00,
2013-01-11 15:32:00,36.3,30.8,29.59,SSE,158,0.0,0.0,80,0.00,,---,0.00,VWS V13.01,2013-01-11 20:32:00,
2013-01-11 15:35:00,36.3,30.8,29.59,SSE,158,0.0,0.0,80,0.00,,---,0.00,VWS V13.01,2013-01-11 20:35:00,
2013-01-11 15:37:00,36.3,30.8,29.59,SSE,158,0.0,0.0,80,0.00,,---,0.00,VWS V13.01,2013-01-11 20:37:00,
2013-01-11 15:40:00,36.3,30.8,29.59,SSE,158,0.0,0.0,80,0.00,,---,0.00,VWS V13.01,2013-01-11 20:40:00,
2013-01-11 15:42:00,36.3,30.8,29.59,SSE,158,0.0,0.0,80,0.00,,---,0.00,VWS V13.01,2013-01-11 20:42:00,
2013-01-11 15:45:00,36.3,30.8,29.59,SSE,158,0.0,0.0,80,0.00,,---,0.00,VWS V13.01,2013-01-11 20:45:00,
2013-01-11 15:47:00,36.3,30.8,29.59,SSE,158,0.0,0.0,80,0.00,,---,0.00,VWS V13.01,2013-01-11 20:47:00,
2013-01-11 15:50:00,36.3,30.8,29.59,SSE,158,0.0,0.0,80,0.00,,---,0.00,VWS V13.01,2013-01-11 20:50:00,
2013-01-11 15:51:00,36.3,30.8,29.56,SSE,158,0.0,0.0,80,0.00,,---,0.00,VWS V13.01,2013-01-11 20:51:00,
2013-01-11 15:52:00,36.3,30.8,29.56,SSE,158,0.0,0.0,80,0.00,,---,0.00,VWS V13.01,2013-01-11 20:52:00,
2013-01-11 15:55:00,36.3,30.8,29.56,SSE,158,0.0,0.0,80,0.00,,---,0.00,VWS V13.01,2013-01-11 20:55:00,
2013-01-11 15:56:00,36.3,30.8,29.56,SSE,158,0.0,0.0,80,0.00,,---,0.00,VWS V13.01,2013-01-11 20:56:00,
2013-01-11 15:58:00,36.3,30.8,29.56,SSE,158,0.0,0.0,80,0.00,,---,0.00,VWS V13.01,2013-01-11 20:58:00,
2013-01-11 16:00:00,36.1,30.9,29.56,SSE,158,0.0,0.0,81,0.00,,---,0.00,VWS V13.01,2013-01-11 21:00:00,
2013-01-11 16:01:00,36.1,30.9,29.56,SSE,158,0.0,0.0,81,0.00,,---,0.00,VWS V13.01,2013-01-11 21:01:00,
2013-01-11 16:03:00,36.1,30.9,29.56,SSW,202,0.0,0.0,81,0.00,,---,0.00,VWS V13.01,2013-01-11 21:03:00,
2013-01-11 16:06:00,36.1,30.9,29.56,SSW,202,0.0,0.0,81,0.00,,---,0.00,VWS V13.01,2013-01-11 21:06:00,
2013-01-11 16:08:00,36.1,30.9,29.56,SSW,202,0.0,0.0,81,0.00,,---,0.00,VWS V13.01,2013-01-11 21:08:00,
2013-01-11 16:11:00,36.1,31.2,29.56,SSE,158,0.0,0.0,82,0.00,,---,0.00,VWS V13.01,2013-01-11 21:11:00,
2013-01-11 16:13:00,36.1,31.2,29.56,SSE,158,0.0,0.0,82,0.00,,---,0.00,VWS V13.01,2013-01-11 21:13:00,
2013-01-11 16:16:00,36.1,31.2,29.56,SSE,158,0.0,0.0,82,0.00,,---,0.00,VWS V13.01,2013-01-11 21:16:00,
2013-01-11 16:18:00,36.1,31.2,29.56,SSE,158,0.0,0.0,82,0.00,,---,0.00,VWS V13.01,2013-01-11 21:18:00,
2013-01-11 16:21:00,36.0,31.0,29.56,SSE,158,0.0,0.0,82,0.00,,---,0.00,VWS V13.01,2013-01-11 21:21:00,
2013-01-11 16:23:00,36.0,31.0,29.56,SSE,158,0.0,0.0,82,0.00,,---,0.00,VWS V13.01,2013-01-11 21:23:00,
2013-01-11 16:26:00,36.0,31.0,29.56,SSE,158,0.0,0.9,82,0.00,,---,0.00,VWS V13.01,2013-01-11 21:26:00,
2013-01-11 16:28:00,36.0,31.0,29.56,SSE,158,0.0,0.0,82,0.00,,---,0.00,VWS V13.01,2013-01-11 21:28:00,
2013-01-11 16:31:00,36.0,31.0,29.56,SSE,158,0.0,0.0,82,0.00,,---,0.00,VWS V13.01,2013-01-11 21:31:00,
2013-01-11 16:32:00,36.0,31.0,29.56,SSE,158,0.0,0.0,82,0.00,,---,0.00,VWS V13.01,2013-01-11 21:32:00,
2013-01-11 16:34:00,36.0,31.0,29.56,SSE,158,0.0,0.0,82,0.00,,---,0.00,VWS V13.01,2013-01-11 21:34:00,
2013-01-11 16:36:00,36.0,31.0,29.56,SSE,158,0.0,0.0,82,0.00,,---,0.00,VWS V13.01,2013-01-11 21:36:00,
2013-01-11 16:37:00,36.0,31.0,29.56,SSE,158,0.0,0.0,82,0.00,,---,0.00,VWS V13.01,2013-01-11 21:37:00,
2013-01-11 16:41:00,36.0,31.0,29.56,SSE,158,0.0,0.0,82,0.00,,---,0.00,VWS V13.01,2013-01-11 21:41:00,
2013-01-11 16:42:00,36.0,31.0,29.56,SSE,158,0.0,0.0,82,0.00,,---,0.00,VWS V13.01,2013-01-11 21:42:00,
2013-01-11 16:46:00,36.0,31.0,29.56,SSE,158,0.0,0.0,82,0.00,,---,0.00,VWS V13.01,2013-01-11 21:46:00,
2013-01-11 16:47:00,36.0,31.0,29.56,SSE,158,0.0,0.0,82,0.00,,---,0.00,VWS V13.01,2013-01-11 21:47:00,
2013-01-11 16:51:00,36.0,31.0,29.56,SSE,158,0.0,0.0,82,0.00,,---,0.00,VWS V13.01,2013-01-11 21:51:00,
2013-01-11 16:52:00,36.0,31.0,29.56,SSE,158,0.0,0.0,82,0.00,,---,0.00,VWS V13.01,2013-01-11 21:52:00,
2013-01-11 16:56:00,35.8,31.1,29.56,SSE,158,0.0,0.0,83,0.00,,---,0.00,VWS V13.01,2013-01-11 21:56:00,
2013-01-11 16:57:00,35.8,31.1,29.56,SSE,158,0.0,0.0,83,0.00,,---,0.00,VWS V13.01,2013-01-11 21:57:00,
2013-01-11 17:01:00,35.8,31.1,29.56,SSE,158,0.0,0.0,83,0.00,,---,0.00,VWS V13.01,2013-01-11 22:01:00,
2013-01-11 17:02:00,35.8,31.1,29.56,SSE,158,0.0,0.0,83,0.00,,---,0.00,VWS V13.01,2013-01-11 22:02:00,
2013-01-11 17:06:00,35.8,31.1,29.53,SSE,158,0.0,0.0,83,0.00,,---,0.00,VWS V13.01,2013-01-11 22:06:00,
2013-01-11 17:07:00,35.8,31.1,29.53,SSE,158,0.0,0.0,83,0.00,,---,0.00,VWS V13.01,2013-01-11 22:07:00,
2013-01-11 17:11:00,35.8,31.1,29.53,SSE,158,0.0,0.0,83,0.00,,---,0.00,VWS V13.01,2013-01-11 22:11:00,
2013-01-11 17:12:00,35.8,31.1,29.53,SSE,158,0.0,0.0,83,0.00,,---,0.00,VWS V13.01,2013-01-11 22:12:00,
2013-01-11 17:13:00,35.8,31.1,29.53,SSE,158,0.0,0.0,83,0.00,,---,0.00,VWS V13.01,2013-01-11 22:13:00,
2013-01-11 17:16:00,35.8,31.4,29.53,SSE,158,0.0,0.0,84,0.00,,---,0.00,VWS V13.01,2013-01-11 22:16:00,
2013-01-11 17:17:00,35.8,31.4,29.53,SSE,158,0.0,0.0,84,0.00,,---,0.00,VWS V13.01,2013-01-11 22:17:00,
2013-01-11 17:18:00,35.8,31.4,29.53,SE,135,1.3,1.3,84,0.00,,---,0.00,VWS V13.01,2013-01-11 22:18:00,
2013-01-11 17:21:00,35.8,31.4,29.53,SE,135,0.0,0.0,84,0.00,,---,0.00,VWS V13.01,2013-01-11 22:21:00,
2013-01-11 17:22:00,35.8,31.4,29.53,SE,135,0.0,0.0,84,0.00,,---,0.00,VWS V13.01,2013-01-11 22:22:00,
2013-01-11 17:23:00,35.8,31.4,29.53,SE,135,0.0,0.0,84,0.00,,---,0.00,VWS V13.01,2013-01-11 22:23:00,
2013-01-11 17:26:00,35.8,31.4,29.53,SE,135,0.0,0.0,84,0.00,,---,0.00,VWS V13.01,2013-01-11 22:26:00,
2013-01-11 17:27:00,35.8,31.4,29.53,SE,135,0.0,0.0,84,0.00,,---,0.00,VWS V13.01,2013-01-11 22:27:00,
2013-01-11 17:28:00,35.8,31.4,29.53,SE,135,0.0,0.0,84,0.00,,---,0.00,VWS V13.01,2013-01-11 22:28:00,
2013-01-11 17:29:00,35.8,31.4,29.53,SE,135,0.0,0.0,84,0.00,,---,0.00,VWS V13.01,2013-01-11 22:29:00,
2013-01-11 17:31:00,35.8,31.4,29.53,SE,135,0.0,0.0,84,0.00,,---,0.00,VWS V13.01,2013-01-11 22:31:00,
2013-01-11 17:32:00,35.8,31.4,29.53,SE,135,0.0,0.0,84,0.00,,---,0.00,VWS V13.01,2013-01-11 22:32:00,
2013-01-11 17:33:00,35.8,31.4,29.53,SE,135,0.0,0.0,84,0.00,,---,0.00,VWS V13.01,2013-01-11 22:33:00,
2013-01-11 17:34:00,35.6,31.2,29.53,SE,135,0.0,0.0,84,0.00,,---,0.00,VWS V13.01,2013-01-11 22:34:00,
2013-01-11 17:37:00,35.6,31.2,29.53,SE,135,0.0,0.0,84,0.00,,---,0.00,VWS V13.01,2013-01-11 22:37:00,
2013-01-11 17:38:00,35.6,31.2,29.53,SE,135,0.0,0.0,84,0.00,,---,0.00,VWS V13.01,2013-01-11 22:38:00,
2013-01-11 17:39:00,35.6,31.2,29.53,SE,135,0.0,0.0,84,0.00,,---,0.00,VWS V13.01,2013-01-11 22:39:00,
2013-01-11 17:42:00,35.6,31.2,29.53,SE,135,0.0,0.0,84,0.00,,---,0.00,VWS V13.01,2013-01-11 22:42:00,
2013-01-11 17:43:00,35.6,31.2,29.53,SE,135,0.0,0.0,84,0.00,,---,0.00,VWS V13.01,2013-01-11 22:43:00,
2013-01-11 17:44:00,35.6,31.5,29.53,SE,135,0.0,0.0,85,0.00,,---,0.00,VWS V13.01,2013-01-11 22:44:00,
2013-01-11 17:47:00,35.8,31.7,29.53,SE,135,0.0,0.0,85,0.00,,---,0.00,VWS V13.01,2013-01-11 22:47:00,
2013-01-11 17:48:00,35.8,31.7,29.53,SE,135,0.0,0.0,85,0.00,,---,0.00,VWS V13.01,2013-01-11 22:48:00,
2013-01-11 17:49:00,35.8,31.7,29.53,SE,135,0.0,0.0,85,0.00,,---,0.00,VWS V13.01,2013-01-11 22:49:00,
2013-01-11 17:52:00,35.8,31.7,29.53,SE,135,0.0,0.0,85,0.00,,---,0.00,VWS V13.01,2013-01-11 22:52:00,
2013-01-11 17:53:00,35.8,31.7,29.53,SE,135,0.0,0.0,85,0.00,,---,0.00,VWS V13.01,2013-01-11 22:53:00,
2013-01-11 17:54:00,35.8,31.7,29.53,SE,135,0.0,0.0,85,0.00,,---,0.00,VWS V13.01,2013-01-11 22:54:00,
2013-01-11 17:57:00,35.8,31.7,29.53,SE,135,0.0,0.0,85,0.00,,---,0.00,VWS V13.01,2013-01-11 22:57:00,
2013-01-11 17:58:00,35.8,31.7,29.53,SE,135,0.0,0.0,85,0.00,,---,0.00,VWS V13.01,2013-01-11 22:58:00,
2013-01-11 17:59:00,35.8,31.7,29.53,SE,135,0.0,0.0,85,0.00,,---,0.00,VWS V13.01,2013-01-11 22:59:00,
2013-01-11 18:02:00,35.8,31.7,29.53,South,180,0.0,0.0,85,0.00,,---,0.00,VWS V13.01,2013-01-11 23:02:00,
2013-01-11 18:03:00,35.8,31.7,29.53,South,180,0.0,0.0,85,0.00,,---,0.00,VWS V13.01,2013-01-11 23:03:00,
2013-01-11 18:04:00,35.8,31.7,29.53,South,180,0.0,0.0,85,0.00,,---,0.00,VWS V13.01,2013-01-11 23:04:00,
2013-01-11 18:07:00,35.6,31.8,29.53,South,180,0.0,0.0,86,0.00,,---,0.00,VWS V13.01,2013-01-11 23:07:00,
2013-01-11 18:08:00,35.6,31.8,29.53,South,180,0.0,0.0,86,0.00,,---,0.00,VWS V13.01,2013-01-11 23:08:00,
2013-01-11 18:10:00,35.6,31.8,29.50,South,180,0.0,0.0,86,0.00,,---,0.00,VWS V13.01,2013-01-11 23:10:00,
2013-01-11 18:12:00,35.6,31.8,29.50,South,180,0.0,0.0,86,0.00,,---,0.00,VWS V13.01,2013-01-11 23:12:00,
2013-01-11 18:13:00,35.6,31.8,29.50,SSE,158,0.0,0.0,86,0.00,,---,0.00,VWS V13.01,2013-01-11 23:13:00,
2013-01-11 18:14:00,35.6,31.8,29.50,SSE,158,0.0,0.0,86,0.00,,---,0.00,VWS V13.01,2013-01-11 23:14:00,
2013-01-11 18:15:00,35.6,31.8,29.50,SSE,158,0.0,0.0,86,0.00,,---,0.00,VWS V13.01,2013-01-11 23:15:00,
2013-01-11 18:17:00,35.6,31.8,29.50,SSE,158,0.0,0.0,86,0.00,,---,0.00,VWS V13.01,2013-01-11 23:17:00,
2013-01-11 18:18:00,35.6,31.8,29.50,SSE,158,0.0,0.0,86,0.00,,---,0.00,VWS V13.01,2013-01-11 23:18:00,
2013-01-11 18:19:00,35.6,31.8,29.50,SSE,158,0.0,0.0,86,0.00,,---,0.00,VWS V13.01,2013-01-11 23:19:00,
2013-01-11 18:20:00,35.6,31.8,29.50,SSE,158,0.0,0.0,86,0.00,,---,0.00,VWS V13.01,2013-01-11 23:20:00,
2013-01-11 18:22:00,35.6,31.8,29.50,SSE,158,0.0,0.0,86,0.00,,---,0.00,VWS V13.01,2013-01-11 23:22:00,
2013-01-11 18:23:00,35.6,31.8,29.50,SSE,158,0.0,0.0,86,0.00,,---,0.00,VWS V13.01,2013-01-11 23:23:00,
2013-01-11 18:24:00,35.6,31.8,29.50,SSE,158,0.0,0.0,86,0.00,,---,0.00,VWS V13.01,2013-01-11 23:24:00,
2013-01-11 18:25:00,35.6,31.8,29.50,SSE,158,0.0,0.0,86,0.00,,---,0.00,VWS V13.01,2013-01-11 23:25:00,
2013-01-11 18:27:00,35.6,31.8,29.50,SSE,158,0.0,0.0,86,0.00,,---,0.00,VWS V13.01,2013-01-11 23:27:00,
2013-01-11 18:28:00,35.8,32.0,29.50,SSE,158,0.0,0.0,86,0.00,,---,0.00,VWS V13.01,2013-01-11 23:28:00,
2013-01-11 18:29:00,35.8,32.0,29.50,SSE,158,0.0,0.0,86,0.00,,---,0.00,VWS V13.01,2013-01-11 23:29:00,
2013-01-11 18:30:00,35.6,31.8,29.50,SSE,158,0.0,0.0,86,0.00,,---,0.00,VWS V13.01,2013-01-11 23:30:00,
2013-01-11 18:32:00,35.6,31.8,29.50,SSE,158,0.0,0.0,86,0.00,,---,0.00,VWS V13.01,2013-01-11 23:32:00,
2013-01-11 18:33:00,35.6,31.8,29.50,SSE,158,0.0,0.0,86,0.00,,---,0.00,VWS V13.01,2013-01-11 23:33:00,
2013-01-11 18:34:00,35.6,31.8,29.50,SSE,158,0.0,0.0,86,0.00,,---,0.00,VWS V13.01,2013-01-11 23:34:00,
2013-01-11 18:35:00,35.6,31.8,29.50,SSE,158,0.0,0.0,86,0.00,,---,0.00,VWS V13.01,2013-01-11 23:35:00,
2013-01-11 18:37:00,35.8,32.0,29.50,SSE,158,0.0,0.0,86,0.00,,---,0.00,VWS V13.01,2013-01-11 23:37:00,
2013-01-11 18:38:00,35.8,32.0,29.50,SSE,158,0.0,0.0,86,0.00,,---,0.00,VWS V13.01,2013-01-11 23:38:00,
2013-01-11 18:39:00,35.8,32.0,29.50,SSE,158,0.0,0.0,86,0.00,,---,0.00,VWS V13.01,2013-01-11 23:39:00,
2013-01-11 18:40:00,35.8,32.0,29.50,SSE,158,0.0,0.0,86,0.00,,---,0.00,VWS V13.01,2013-01-11 23:40:00,
2013-01-11 18:42:00,35.8,32.0,29.50,SSE,158,0.0,0.0,86,0.00,,---,0.00,VWS V13.01,2013-01-11 23:42:00,
2013-01-11 18:44:00,35.8,32.0,29.50,South,180,0.0,1.1,86,0.00,,---,0.13,VWS V13.01,2013-01-11 23:44:00,
2013-01-11 18:45:00,35.8,32.0,29.50,South,180,0.0,0.0,86,0.13,,---,0.13,VWS V13.01,2013-01-11 23:45:00,
2013-01-11 18:47:00,36.0,32.5,29.50,South,180,0.0,0.0,87,0.13,,---,0.13,VWS V13.01,2013-01-11 23:47:00,
2013-01-11 18:49:00,36.0,32.5,29.50,SSE,158,0.0,0.0,87,0.13,,---,0.13,VWS V13.01,2013-01-11 23:49:00,
2013-01-11 18:50:00,36.0,32.5,29.50,SSE,158,0.0,0.0,87,0.13,,---,0.13,VWS V13.01,2013-01-11 23:50:00,
2013-01-11 18:52:00,36.0,32.5,29.50,SSE,158,0.0,0.0,87,0.13,,---,0.13,VWS V13.01,2013-01-11 23:52:00,
2013-01-11 18:54:00,36.0,32.5,29.50,SSE,158,0.0,0.0,87,0.13,,---,0.13,VWS V13.01,2013-01-11 23:54:00,
2013-01-11 18:55:00,36.0,32.5,29.50,SSE,158,0.0,0.0,87,0.13,,---,0.13,VWS V13.01,2013-01-11 23:55:00,
2013-01-11 18:57:00,36.0,32.5,29.50,SSE,158,0.0,0.0,87,0.13,,---,0.13,VWS V13.01,2013-01-11 23:57:00,
2013-01-11 18:59:00,36.1,32.7,29.50,SSE,158,0.0,0.0,87,0.13,,---,0.13,VWS V13.01,2013-01-11 23:59:00,
2013-01-11 19:00:00,36.1,32.7,29.50,SSE,158,0.0,0.0,87,0.13,,---,0.13,VWS V13.01,2013-01-12 00:00:00,
2013-01-11 19:01:00,36.1,32.7,29.50,SSE,158,0.0,0.0,87,0.13,,---,0.13,VWS V13.01,2013-01-12 00:01:00,
2013-01-11 19:02:00,36.1,32.7,29.50,SSE,158,0.0,0.0,87,0.13,,---,0.13,VWS V13.01,2013-01-12 00:02:00,
2013-01-11 19:04:00,36.1,32.7,29.50,SSE,158,0.0,0.0,87,0.13,,---,0.13,VWS V13.01,2013-01-12 00:04:00,
2013-01-11 19:05:00,36.1,32.7,29.50,SSE,158,0.0,0.0,87,0.13,,---,0.13,VWS V13.01,2013-01-12 00:05:00,
2013-01-11 19:06:00,36.1,32.7,29.50,SSE,158,0.0,0.0,87,0.13,,---,0.17,VWS V13.01,2013-01-12 00:06:00,
2013-01-11 19:08:00,36.1,32.7,29.50,SSE,158,0.0,0.0,87,0.17,,---,0.17,VWS V13.01,2013-01-12 00:08:00,
2013-01-11 19:09:00,36.1,32.7,29.47,SSE,158,0.0,0.0,87,0.17,,---,0.17,VWS V13.01,2013-01-12 00:09:00,
2013-01-11 19:10:00,36.1,32.7,29.47,SSE,158,0.0,0.0,87,0.17,,---,0.17,VWS V13.01,2013-01-12 00:10:00,
2013-01-11 19:11:00,36.1,32.7,29.47,SSE,158,0.0,0.0,87,0.17,,---,0.17,VWS V13.01,2013-01-12 00:11:00,
2013-01-11 19:12:00,36.1,32.7,29.47,SSE,158,0.0,0.0,87,0.17,,---,0.17,VWS V13.01,2013-01-12 00:12:00,
2013-01-11 19:14:00,36.1,32.7,29.47,SSE,158,0.0,0.0,87,0.17,,---,0.17,VWS V13.01,2013-01-12 00:14:00,
2013-01-11 19:15:00,36.1,32.7,29.47,SSE,158,0.0,0.0,87,0.17,,---,0.17,VWS V13.01,2013-01-12 00:15:00,
2013-01-11 19:16:00,36.1,32.7,29.47,SSE,158,0.0,0.0,87,0.17,,---,0.17,VWS V13.01,2013-01-12 00:16:00,
2013-01-11 19:17:00,36.1,32.7,29.47,SSE,158,0.0,0.0,87,0.17,,---,0.17,VWS V13.01,2013-01-12 00:17:00,
2013-01-11 19:19:00,36.1,32.7,29.47,SE,135,0.0,0.0,87,0.17,,---,0.17,VWS V13.01,2013-01-12 00:19:00,
2013-01-11 19:20:00,36.1,32.7,29.47,SE,135,0.0,0.0,87,0.17,,---,0.17,VWS V13.01,2013-01-12 00:20:00,
2013-01-11 19:21:00,36.1,32.7,29.47,SE,135,0.0,0.0,87,0.17,,---,0.17,VWS V13.01,2013-01-12 00:21:00,
2013-01-11 19:23:00,36.1,32.7,29.47,SE,135,0.0,0.0,87,0.17,,---,0.17,VWS V13.01,2013-01-12 00:23:00,
2013-01-11 19:24:00,36.1,32.7,29.47,SE,135,0.0,0.0,87,0.17,,---,0.17,VWS V13.01,2013-01-12 00:24:00,
2013-01-11 19:25:00,36.1,32.7,29.47,SE,135,0.0,0.0,87,0.17,,---,0.17,VWS V13.01,2013-01-12 00:25:00,
2013-01-11 19:26:00,36.1,32.7,29.47,SE,135,0.0,0.0,87,0.17,,---,0.17,VWS V13.01,2013-01-12 00:26:00,
2013-01-11 19:28:00,36.1,32.7,29.47,SE,135,0.0,0.0,87,0.17,,---,0.17,VWS V13.01,2013-01-12 00:28:00,
2013-01-11 19:29:00,36.1,32.7,29.47,SSE,158,0.0,0.0,87,0.17,,---,0.17,VWS V13.01,2013-01-12 00:29:00,
2013-01-11 19:30:00,36.7,33.5,29.47,South,180,0.0,0.0,88,0.17,,---,0.17,VWS V13.01,2013-01-12 00:30:00,
2013-01-11 19:31:00,36.7,33.5,29.47,South,180,0.0,0.0,88,0.17,,---,0.17,VWS V13.01,2013-01-12 00:31:00,
2013-01-11 19:33:00,36.7,33.5,29.47,South,180,0.0,0.0,88,0.17,,---,0.17,VWS V13.01,2013-01-12 00:33:00,
2013-01-11 19:34:00,36.7,33.5,29.47,SSE,158,0.0,0.0,88,0.17,,---,0.17,VWS V13.01,2013-01-12 00:34:00,
2013-01-11 19:35:00,36.7,33.5,29.47,SSE,158,0.0,0.0,88,0.17,,---,0.17,VWS V13.01,2013-01-12 00:35:00,
2013-01-11 19:36:00,36.7,33.5,29.47,SSE,158,0.0,0.0,88,0.17,,---,0.17,VWS V13.01,2013-01-12 00:36:00,
2013-01-11 19:38:00,36.7,33.5,29.47,SSE,158,0.0,0.0,88,0.17,,---,0.17,VWS V13.01,2013-01-12 00:38:00,
2013-01-11 19:39:00,36.7,33.5,29.47,SSE,158,0.0,0.0,88,0.17,,---,0.17,VWS V13.01,2013-01-12 00:39:00,
2013-01-11 19:40:00,36.7,33.5,29.47,SSE,158,0.0,0.0,88,0.21,,---,0.21,VWS V13.01,2013-01-12 00:40:00,
2013-01-11 19:41:00,36.7,33.5,29.47,SSE,158,0.0,0.0,88,0.21,,---,0.21,VWS V13.01,2013-01-12 00:41:00,
2013-01-11 19:43:00,36.7,33.5,29.47,SSE,158,0.0,0.0,88,0.21,,---,0.21,VWS V13.01,2013-01-12 00:43:00,
2013-01-11 19:44:00,36.7,33.5,29.47,SSE,158,0.0,0.0,88,0.21,,---,0.21,VWS V13.01,2013-01-12 00:44:00,
2013-01-11 19:45:00,36.7,33.5,29.47,SSE,158,0.0,0.0,88,0.21,,---,0.21,VWS V13.01,2013-01-12 00:45:00,
2013-01-11 19:46:00,36.7,33.5,29.47,SSE,158,0.0,0.0,88,0.08,,---,0.21,VWS V13.01,2013-01-12 00:46:00,
2013-01-11 19:48:00,36.7,33.5,29.47,SSW,202,0.0,0.0,88,0.08,,---,0.21,VWS V13.01,2013-01-12 00:48:00,
2013-01-11 19:49:00,36.7,33.5,29.47,South,180,0.0,0.0,88,0.08,,---,0.25,VWS V13.01,2013-01-12 00:49:00,
2013-01-11 19:50:00,36.7,33.5,29.47,South,180,0.0,0.0,88,0.12,,---,0.25,VWS V13.01,2013-01-12 00:50:00,
2013-01-11 19:51:00,36.7,33.5,29.47,South,180,0.0,0.0,88,0.12,,---,0.25,VWS V13.01,2013-01-12 00:51:00,
2013-01-11 19:53:00,36.9,33.9,29.47,SSE,158,0.0,0.0,89,0.12,,---,0.25,VWS V13.01,2013-01-12 00:53:00,
2013-01-11 19:54:00,37.0,34.1,29.47,SSE,158,0.0,0.0,89,0.12,,---,0.25,VWS V13.01,2013-01-12 00:54:00,
2013-01-11 19:55:00,37.0,34.1,29.47,SE,135,0.9,0.9,89,0.12,,---,0.25,VWS V13.01,2013-01-12 00:55:00,
2013-01-11 19:56:00,37.0,34.1,29.47,SE,135,0.0,0.0,89,0.12,,---,0.25,VWS V13.01,2013-01-12 00:56:00,
2013-01-11 19:59:00,37.0,34.1,29.47,SE,135,0.0,0.0,89,0.12,,---,0.25,VWS V13.01,2013-01-12 00:59:00,
2013-01-11 20:00:00,37.0,34.1,29.47,SE,135,0.0,0.0,89,0.12,,---,0.25,VWS V13.01,2013-01-12 01:00:00,
2013-01-11 20:01:00,37.0,34.1,29.47,SE,135,0.0,0.0,89,0.12,,---,0.25,VWS V13.01,2013-01-12 01:01:00,
2013-01-11 20:04:00,37.0,34.1,29.47,SE,135,0.0,0.0,89,0.12,,---,0.25,VWS V13.01,2013-01-12 01:04:00,
2013-01-11 20:05:00,37.0,34.1,29.47,SE,135,0.0,0.0,89,0.12,,---,0.25,VWS V13.01,2013-01-12 01:05:00,
2013-01-11 20:07:00,37.0,34.1,29.47,SE,135,0.0,0.0,89,0.12,,---,0.29,VWS V13.01,2013-01-12 01:07:00,
2013-01-11 20:09:00,37.0,34.1,29.47,SE,135,0.0,0.0,89,0.12,,---,0.29,VWS V13.01,2013-01-12 01:09:00,
2013-01-11 20:10:00,37.0,34.1,29.47,SE,135,0.0,0.0,89,0.12,,---,0.29,VWS V13.01,2013-01-12 01:10:00,
2013-01-11 20:12:00,37.0,34.1,29.47,SE,135,1.3,1.3,89,0.12,,---,0.29,VWS V13.01,2013-01-12 01:12:00,
2013-01-11 20:14:00,37.0,34.1,29.47,SE,135,0.0,0.0,89,0.12,,---,0.29,VWS V13.01,2013-01-12 01:14:00,
2013-01-11 20:15:00,37.0,34.1,29.47,West,270,1.6,1.6,89,0.12,,---,0.29,VWS V13.01,2013-01-12 01:15:00,
2013-01-11 20:17:00,37.0,34.1,29.47,WSW,248,0.0,0.0,89,0.12,,---,0.29,VWS V13.01,2013-01-12 01:17:00,
2013-01-11 20:19:00,37.0,34.1,29.47,South,180,0.0,0.0,89,0.12,,---,0.29,VWS V13.01,2013-01-12 01:19:00,
2013-01-11 20:20:00,37.0,34.1,29.47,South,180,0.0,0.0,89,0.12,,---,0.29,VWS V13.01,2013-01-12 01:20:00,
2013-01-11 20:21:00,37.0,34.1,29.47,South,180,0.0,0.0,89,0.12,,---,0.29,VWS V13.01,2013-01-12 01:21:00,
2013-01-11 20:23:00,37.0,34.1,29.47,South,180,0.0,0.0,89,0.12,,---,0.29,VWS V13.01,2013-01-12 01:23:00,
2013-01-11 20:24:00,37.0,34.1,29.47,SSE,158,0.0,0.0,89,0.12,,---,0.29,VWS V13.01,2013-01-12 01:24:00,
2013-01-11 20:25:00,37.0,34.1,29.47,SSE,158,0.0,0.0,89,0.12,,---,0.29,VWS V13.01,2013-01-12 01:25:00,
2013-01-11 20:26:00,37.0,34.1,29.47,SSE,158,0.0,0.0,89,0.12,,---,0.29,VWS V13.01,2013-01-12 01:26:00,
2013-01-11 20:28:00,37.0,34.1,29.47,SSE,158,0.0,0.0,89,0.12,,---,0.29,VWS V13.01,2013-01-12 01:28:00,
2013-01-11 20:29:00,37.0,34.1,29.47,SSE,158,0.0,0.0,89,0.12,,---,0.33,VWS V13.01,2013-01-12 01:29:00,
2013-01-11 20:30:00,37.0,34.1,29.47,SSE,158,0.0,0.0,89,0.16,,---,0.33,VWS V13.01,2013-01-12 01:30:00,
2013-01-11 20:31:00,37.0,34.1,29.47,SSE,158,0.0,0.0,89,0.16,,---,0.33,VWS V13.01,2013-01-12 01:31:00,
2013-01-11 20:33:00,37.0,34.1,29.47,SSE,158,0.0,0.0,89,0.16,,---,0.33,VWS V13.01,2013-01-12 01:33:00,
2013-01-11 20:34:00,37.0,34.1,29.47,SSE,158,0.0,0.0,89,0.16,,---,0.33,VWS V13.01,2013-01-12 01:34:00,
2013-01-11 20:35:00,37.0,34.1,29.47,SSE,158,0.0,0.0,89,0.16,,---,0.33,VWS V13.01,2013-01-12 01:35:00,
2013-01-11 20:36:00,37.0,34.1,29.47,SSE,158,0.0,0.0,89,0.16,,---,0.33,VWS V13.01,2013-01-12 01:36:00,
2013-01-11 20:38:00,37.0,34.1,29.47,SSE,158,0.0,0.0,89,0.16,,---,0.33,VWS V13.01,2013-01-12 01:38:00,
2013-01-11 20:39:00,37.0,34.1,29.47,SSE,158,0.0,0.0,89,0.16,,---,0.33,VWS V13.01,2013-01-12 01:39:00,
2013-01-11 20:40:00,37.0,34.1,29.47,SSE,158,0.0,0.0,89,0.16,,---,0.33,VWS V13.01,2013-01-12 01:40:00,
2013-01-11 20:41:00,37.0,34.1,29.47,SSE,158,0.0,0.0,89,0.16,,---,0.33,VWS V13.01,2013-01-12 01:41:00,
2013-01-11 20:43:00,37.0,34.1,29.47,SSE,158,0.0,0.0,89,0.12,,---,0.33,VWS V13.01,2013-01-12 01:43:00,
2013-01-11 20:44:00,37.0,34.1,29.47,SSE,158,0.0,0.0,89,0.12,,---,0.33,VWS V13.01,2013-01-12 01:44:00,
2013-01-11 20:45:00,37.0,34.1,29.47,SSE,158,1.1,1.3,89,0.12,,---,0.33,VWS V13.01,2013-01-12 01:45:00,
2013-01-11 20:46:00,37.0,34.1,29.47,SSE,158,1.1,1.1,89,0.12,,---,0.33,VWS V13.01,2013-01-12 01:46:00,
2013-01-11 20:48:00,37.0,34.1,29.47,SSE,158,0.0,0.0,89,0.12,,---,0.33,VWS V13.01,2013-01-12 01:48:00,
2013-01-11 20:49:00,37.0,34.1,29.47,SSE,158,0.0,0.0,89,0.12,,---,0.33,VWS V13.01,2013-01-12 01:49:00,
2013-01-11 20:51:00,37.0,34.1,29.47,SSE,158,0.0,0.0,89,0.12,,---,0.33,VWS V13.01,2013-01-12 01:51:00,
2013-01-11 20:53:00,37.0,34.1,29.47,SSE,158,0.0,0.0,89,0.08,,---,0.33,VWS V13.01,2013-01-12 01:53:00,
2013-01-11 20:54:00,37.0,34.1,29.47,SSE,158,0.0,0.0,89,0.08,,---,0.33,VWS V13.01,2013-01-12 01:54:00,
2013-01-11 20:56:00,37.0,34.1,29.47,SSE,158,0.0,0.0,89,0.08,,---,0.33,VWS V13.01,2013-01-12 01:56:00,
2013-01-11 21:00:00,37.0,34.1,29.47,SSE,158,0.0,0.0,89,0.08,,---,0.33,VWS V13.01,2013-01-12 02:00:00,
2013-01-11 21:01:00,37.0,34.1,29.47,SSE,158,0.0,0.0,89,0.08,,---,0.33,VWS V13.01,2013-01-12 02:01:00,
2013-01-11 21:05:00,37.0,34.1,29.44,SSE,158,0.0,0.0,89,0.08,,---,0.33,VWS V13.01,2013-01-12 02:05:00,
2013-01-11 21:06:00,37.0,34.1,29.44,SSE,158,0.0,0.0,89,0.08,,---,0.33,VWS V13.01,2013-01-12 02:06:00,
2013-01-11 21:10:00,37.0,34.1,29.44,SSE,158,0.0,0.0,89,0.04,,---,0.33,VWS V13.01,2013-01-12 02:10:00,
2013-01-11 21:11:00,37.0,34.1,29.44,SSE,158,0.0,0.0,89,0.04,,---,0.33,VWS V13.01,2013-01-12 02:11:00,
2013-01-11 21:15:00,37.0,34.1,29.44,SSE,158,0.0,0.0,89,0.04,,---,0.33,VWS V13.01,2013-01-12 02:15:00,
2013-01-11 21:16:00,37.4,34.5,29.44,SSE,158,0.0,0.0,89,0.04,,---,0.33,VWS V13.01,2013-01-12 02:16:00,
2013-01-11 21:20:00,37.4,34.5,29.44,SSE,158,0.0,0.0,89,0.04,,---,0.33,VWS V13.01,2013-01-12 02:20:00,
2013-01-11 21:21:00,37.4,34.5,29.44,SSE,158,0.0,0.0,89,0.04,,---,0.33,VWS V13.01,2013-01-12 02:21:00,
2013-01-11 21:25:00,37.4,34.5,29.44,SSE,158,0.0,0.0,89,0.04,,---,0.33,VWS V13.01,2013-01-12 02:25:00,
2013-01-11 21:26:00,37.4,34.5,29.44,SSE,158,0.0,0.0,89,0.04,,---,0.33,VWS V13.01,2013-01-12 02:26:00,
2013-01-11 21:30:00,37.4,34.5,29.44,SSE,158,0.0,0.0,89,0.00,,---,0.33,VWS V13.01,2013-01-12 02:30:00,
2013-01-11 21:31:00,37.4,34.5,29.44,SSE,158,0.0,0.0,89,0.00,,---,0.33,VWS V13.01,2013-01-12 02:31:00,
2013-01-11 21:32:00,37.4,34.5,29.44,SSE,158,0.0,0.0,89,0.00,,---,0.33,VWS V13.01,2013-01-12 02:32:00,
2013-01-11 21:36:00,37.2,34.6,29.44,SSE,158,0.0,0.0,90,0.00,,---,0.33,VWS V13.01,2013-01-12 02:36:00,
2013-01-11 21:37:00,37.2,34.6,29.44,SSE,158,0.0,0.0,90,0.00,,---,0.33,VWS V13.01,2013-01-12 02:37:00,
2013-01-11 21:41:00,37.2,34.3,29.44,SSE,158,0.0,0.0,89,0.00,,---,0.33,VWS V13.01,2013-01-12 02:41:00,
2013-01-11 21:42:00,37.2,34.3,29.44,SSE,158,0.0,0.0,89,0.00,,---,0.33,VWS V13.01,2013-01-12 02:42:00,
2013-01-11 21:46:00,37.2,34.3,29.44,SSE,158,0.0,0.0,89,0.00,,---,0.33,VWS V13.01,2013-01-12 02:46:00,
2013-01-11 21:47:00,37.2,34.3,29.44,SSE,158,0.0,0.0,89,0.00,,---,0.33,VWS V13.01,2013-01-12 02:47:00,
2013-01-11 21:51:00,37.2,34.3,29.44,SSE,158,0.0,0.0,89,0.00,,---,0.33,VWS V13.01,2013-01-12 02:51:00,
2013-01-11 21:52:00,37.2,34.3,29.44,SSE,158,0.0,0.0,89,0.00,,---,0.33,VWS V13.01,2013-01-12 02:52:00,
2013-01-11 21:56:00,37.2,34.3,29.44,SSE,158,0.0,0.0,89,0.00,,---,0.33,VWS V13.01,2013-01-12 02:56:00,
2013-01-11 21:57:00,37.2,34.3,29.44,SSE,158,0.0,0.0,89,0.00,,---,0.33,VWS V13.01,2013-01-12 02:57:00,
2013-01-11 22:01:00,37.2,34.3,29.44,SSE,158,0.0,0.0,89,0.00,,---,0.33,VWS V13.01,2013-01-12 03:01:00,
2013-01-11 22:02:00,37.4,34.5,29.44,SSE,158,0.0,0.0,89,0.00,,---,0.33,VWS V13.01,2013-01-12 03:02:00,
2013-01-11 22:06:00,37.4,34.5,29.44,SSW,202,0.0,0.0,89,0.00,,---,0.33,VWS V13.01,2013-01-12 03:06:00,
2013-01-11 22:07:00,37.4,34.5,29.44,SSW,202,0.0,0.0,89,0.00,,---,0.33,VWS V13.01,2013-01-12 03:07:00,
2013-01-11 22:11:00,37.0,34.1,29.44,SSW,202,0.0,0.0,89,0.00,,---,0.33,VWS V13.01,2013-01-12 03:11:00,
2013-01-11 22:12:00,37.0,34.1,29.44,SSW,202,0.0,0.0,89,0.00,,---,0.33,VWS V13.01,2013-01-12 03:12:00,
2013-01-11 22:13:00,37.0,34.1,29.44,SSW,202,0.0,0.0,89,0.00,,---,0.33,VWS V13.01,2013-01-12 03:13:00,
2013-01-11 22:16:00,37.0,34.1,29.44,SSW,202,0.0,0.0,89,0.00,,---,0.33,VWS V13.01,2013-01-12 03:16:00,
2013-01-11 22:17:00,37.0,34.1,29.44,SSW,202,0.0,0.0,89,0.00,,---,0.33,VWS V13.01,2013-01-12 03:17:00,
2013-01-11 22:18:00,37.0,34.1,29.44,SSW,202,0.0,0.0,89,0.00,,---,0.33,VWS V13.01,2013-01-12 03:18:00,
2013-01-11 22:21:00,37.0,34.1,29.44,SSW,202,0.0,0.0,89,0.00,,---,0.33,VWS V13.01,2013-01-12 03:21:00,
2013-01-11 22:22:00,37.0,34.1,29.44,SSW,202,0.0,0.0,89,0.00,,---,0.33,VWS V13.01,2013-01-12 03:22:00,
2013-01-11 22:23:00,37.0,34.1,29.44,SSW,202,0.0,0.0,89,0.00,,---,0.33,VWS V13.01,2013-01-12 03:23:00,
2013-01-11 22:26:00,37.0,34.1,29.44,SSW,202,0.0,0.0,89,0.00,,---,0.33,VWS V13.01,2013-01-12 03:26:00,
2013-01-11 22:27:00,37.0,34.1,29.44,SSW,202,0.0,0.0,89,0.00,,---,0.33,VWS V13.01,2013-01-12 03:27:00,
2013-01-11 22:28:00,37.0,34.1,29.44,SSW,202,0.0,0.0,89,0.00,,---,0.33,VWS V13.01,2013-01-12 03:28:00,
2013-01-11 22:32:00,37.0,34.1,29.44,SSW,202,0.0,0.0,89,0.00,,---,0.33,VWS V13.01,2013-01-12 03:32:00,
2013-01-11 22:33:00,37.0,34.1,29.44,SSW,202,0.0,0.0,89,0.00,,---,0.33,VWS V13.01,2013-01-12 03:33:00,
2013-01-11 22:38:00,37.2,34.3,29.44,SSE,158,0.0,0.0,89,0.00,,---,0.33,VWS V13.01,2013-01-12 03:38:00,
2013-01-11 22:43:00,37.2,34.3,29.44,SSE,158,0.0,0.0,89,0.00,,---,0.33,VWS V13.01,2013-01-12 03:43:00,
2013-01-11 22:48:00,37.2,34.3,29.44,SSE,158,0.0,0.0,89,0.00,,---,0.33,VWS V13.01,2013-01-12 03:48:00,
2013-01-11 22:53:00,37.4,34.7,29.44,SSE,158,0.0,0.0,90,0.00,,---,0.33,VWS V13.01,2013-01-12 03:53:00,
2013-01-11 22:54:00,37.4,34.7,29.44,SSE,158,0.0,0.0,90,0.00,,---,0.33,VWS V13.01,2013-01-12 03:54:00,
2013-01-11 22:58:00,37.2,34.6,29.44,SSE,158,0.0,0.0,90,0.00,,---,0.33,VWS V13.01,2013-01-12 03:58:00,
2013-01-11 22:59:00,37.2,34.6,29.44,SSE,158,0.0,0.0,90,0.00,,---,0.33,VWS V13.01,2013-01-12 03:59:00,
2013-01-11 23:03:00,37.2,34.6,29.44,SSE,158,0.0,0.0,90,0.00,,---,0.33,VWS V13.01,2013-01-12 04:03:00,
2013-01-11 23:04:00,37.2,34.6,29.44,SSE,158,0.0,0.0,90,0.00,,---,0.33,VWS V13.01,2013-01-12 04:04:00,
2013-01-11 23:08:00,37.2,34.6,29.44,SSE,158,0.0,0.0,90,0.00,,---,0.33,VWS V13.01,2013-01-12 04:08:00,
2013-01-11 23:09:00,37.2,34.6,29.44,SSE,158,0.0,0.0,90,0.00,,---,0.33,VWS V13.01,2013-01-12 04:09:00,
2013-01-11 23:13:00,37.2,34.6,29.44,SSE,158,0.0,0.0,90,0.00,,---,0.33,VWS V13.01,2013-01-12 04:13:00,
2013-01-11 23:14:00,37.2,34.6,29.44,SSE,158,0.0,0.0,90,0.00,,---,0.33,VWS V13.01,2013-01-12 04:14:00,
2013-01-11 23:19:00,37.0,34.4,29.44,SSE,158,0.0,0.0,90,0.00,,---,0.33,VWS V13.01,2013-01-12 04:19:00,
2013-01-11 23:24:00,37.0,34.4,29.44,SSE,158,0.0,0.0,90,0.00,,---,0.33,VWS V13.01,2013-01-12 04:24:00,
2013-01-11 23:29:00,37.2,34.6,29.44,SSE,158,0.0,0.0,90,0.00,,---,0.33,VWS V13.01,2013-01-12 04:29:00,
2013-01-11 23:30:00,37.2,34.6,29.44,SSE,158,0.0,0.0,90,0.00,,---,0.33,VWS V13.01,2013-01-12 04:30:00,
2013-01-11 23:34:00,37.2,34.6,29.44,SSE,158,0.0,0.0,90,0.00,,---,0.33,VWS V13.01,2013-01-12 04:34:00,
2013-01-11 23:35:00,37.2,34.6,29.44,SSE,158,0.0,0.0,90,0.00,,---,0.33,VWS V13.01,2013-01-12 04:35:00,
2013-01-11 23:39:00,37.4,34.7,29.41,SSE,158,0.0,0.0,90,0.00,,---,0.33,VWS V13.01,2013-01-12 04:39:00,
2013-01-11 23:40:00,37.4,34.7,29.41,SSE,158,0.0,0.0,90,0.00,,---,0.33,VWS V13.01,2013-01-12 04:40:00,
2013-01-11 23:44:00,37.4,34.7,29.41,SSE,158,0.0,0.0,90,0.00,,---,0.33,VWS V13.01,2013-01-12 04:44:00,
2013-01-11 23:45:00,37.4,34.7,29.41,SSE,158,0.0,0.0,90,0.00,,---,0.33,VWS V13.01,2013-01-12 04:45:00,
2013-01-11 23:49:00,37.6,35.2,29.41,SSE,158,0.0,0.0,91,0.00,,---,0.33,VWS V13.01,2013-01-12 04:49:00,
2013-01-11 23:50:00,37.6,35.2,29.41,SSE,158,0.0,0.0,91,0.00,,---,0.33,VWS V13.01,2013-01-12 04:50:00,
2013-01-11 23:54:00,37.4,35.0,29.41,SSE,158,0.0,0.0,91,0.00,,---,0.33,VWS V13.01,2013-01-12 04:54:00,
2013-01-11 23:55:00,37.4,35.0,29.41,SSE,158,0.0,0.0,91,0.00,,---,0.33,VWS V13.01,2013-01-12 04:55:00,
2013-01-11 23:59:00,37.4,34.7,29.41,SSE,158,0.0,0.0,90,0.00,,---,0.33,VWS V13.01,2013-01-12 04:59:00,